<?xml version="1.0" encoding="UTF-8"?>
<gpx version="1.0" creator="Trackator Lite" xmlns:xsi="http://www.w3.org/2001/XMLSchema-instance" xmlns="http://www.topografix.com/GPX/1/0" xmlns:topografix="http://www.topografix.com/GPX/Private/TopoGrafix/0/1" xsi:schemaLocation="http://www.topografix.com/GPX/1/0 http://www.topografix.com/GPX/1/0/gpx.xsd http://www.topografix.com/GPX/Private/TopoGrafix/0/1 http://www.topografix.com/GPX/Private/TopoGrafix/0/1/topografix.xsd">
<metadata>
<link href="http://www.trackalia.com"><text>Trackator</text>
</link>
</metadata>
<time>2014-10-02T17:37:46Z</time>
<trk>
<name>Track: </name>
<desc>Parapente</desc>
<trkseg>
<trkpt lat="42.871162" lon="-2.1147635">
<ele>1112</ele>
<time>2014-10-02T17:37:52Z</time>
</trkpt>
<trkpt lat="42.871166" lon="-2.114763">
<ele>1112</ele>
<time>2014-10-02T17:37:53Z</time>
</trkpt>
<trkpt lat="42.871166" lon="-2.114763">
<ele>1112</ele>
<time>2014-10-02T17:37:56Z</time>
</trkpt>
<trkpt lat="42.8712" lon="-2.1147497">
<ele>1107</ele>
<time>2014-10-02T17:37:58Z</time>
</trkpt>
<trkpt lat="42.871216" lon="-2.1147714">
<ele>1106</ele>
<time>2014-10-02T17:38:00Z</time>
</trkpt>
<trkpt lat="42.87122" lon="-2.1147995">
<ele>1107</ele>
<time>2014-10-02T17:38:02Z</time>
</trkpt>
<trkpt lat="42.87123" lon="-2.1148021">
<ele>1107</ele>
<time>2014-10-02T17:38:04Z</time>
</trkpt>
<trkpt lat="42.871235" lon="-2.114797">
<ele>1107</ele>
<time>2014-10-02T17:38:05Z</time>
</trkpt>
<trkpt lat="42.871235" lon="-2.1148055">
<ele>1108</ele>
<time>2014-10-02T17:38:08Z</time>
</trkpt>
<trkpt lat="42.871235" lon="-2.1148083">
<ele>1108</ele>
<time>2014-10-02T17:38:10Z</time>
</trkpt>
<trkpt lat="42.871235" lon="-2.1148088">
<ele>1108</ele>
<time>2014-10-02T17:38:12Z</time>
</trkpt>
<trkpt lat="42.87125" lon="-2.1148276">
<ele>1108</ele>
<time>2014-10-02T17:38:14Z</time>
</trkpt>
<trkpt lat="42.871254" lon="-2.1148329">
<ele>1107</ele>
<time>2014-10-02T17:38:16Z</time>
</trkpt>
<trkpt lat="42.871254" lon="-2.1148345">
<ele>1108</ele>
<time>2014-10-02T17:38:18Z</time>
</trkpt>
<trkpt lat="42.871254" lon="-2.1148353">
<ele>1108</ele>
<time>2014-10-02T17:38:20Z</time>
</trkpt>
<trkpt lat="42.871254" lon="-2.1148348">
<ele>1108</ele>
<time>2014-10-02T17:38:21Z</time>
</trkpt>
<trkpt lat="42.871254" lon="-2.1148329">
<ele>1108</ele>
<time>2014-10-02T17:38:24Z</time>
</trkpt>
<trkpt lat="42.871254" lon="-2.1148324">
<ele>1108</ele>
<time>2014-10-02T17:38:25Z</time>
</trkpt>
<trkpt lat="42.871254" lon="-2.1148317">
<ele>1108</ele>
<time>2014-10-02T17:38:27Z</time>
</trkpt>
<trkpt lat="42.871254" lon="-2.114832">
<ele>1108</ele>
<time>2014-10-02T17:38:30Z</time>
</trkpt>
<trkpt lat="42.871254" lon="-2.114832">
<ele>1108</ele>
<time>2014-10-02T17:38:32Z</time>
</trkpt>
<trkpt lat="42.871254" lon="-2.1148317">
<ele>1108</ele>
<time>2014-10-02T17:38:34Z</time>
</trkpt>
<trkpt lat="42.871254" lon="-2.114832">
<ele>1108</ele>
<time>2014-10-02T17:38:35Z</time>
</trkpt>
<trkpt lat="42.871254" lon="-2.114832">
<ele>1108</ele>
<time>2014-10-02T17:38:38Z</time>
</trkpt>
<trkpt lat="42.871254" lon="-2.114832">
<ele>1108</ele>
<time>2014-10-02T17:38:40Z</time>
</trkpt>
<trkpt lat="42.871254" lon="-2.114832">
<ele>1108</ele>
<time>2014-10-02T17:38:42Z</time>
</trkpt>
<trkpt lat="42.871254" lon="-2.114832">
<ele>1108</ele>
<time>2014-10-02T17:38:44Z</time>
</trkpt>
<trkpt lat="42.871254" lon="-2.114832">
<ele>1108</ele>
<time>2014-10-02T17:38:46Z</time>
</trkpt>
<trkpt lat="42.871254" lon="-2.1148322">
<ele>1109</ele>
<time>2014-10-02T17:38:48Z</time>
</trkpt>
<trkpt lat="42.871254" lon="-2.1148322">
<ele>1109</ele>
<time>2014-10-02T17:38:50Z</time>
</trkpt>
<trkpt lat="42.871254" lon="-2.1148322">
<ele>1109</ele>
<time>2014-10-02T17:38:52Z</time>
</trkpt>
<trkpt lat="42.871254" lon="-2.1148322">
<ele>1109</ele>
<time>2014-10-02T17:38:54Z</time>
</trkpt>
<trkpt lat="42.871254" lon="-2.1148322">
<ele>1109</ele>
<time>2014-10-02T17:38:56Z</time>
</trkpt>
<trkpt lat="42.871265" lon="-2.1148417">
<ele>1109</ele>
<time>2014-10-02T17:38:57Z</time>
</trkpt>
<trkpt lat="42.871277" lon="-2.1148317">
<ele>1108</ele>
<time>2014-10-02T17:39:00Z</time>
</trkpt>
<trkpt lat="42.87127" lon="-2.1148226">
<ele>1109</ele>
<time>2014-10-02T17:39:02Z</time>
</trkpt>
<trkpt lat="42.87127" lon="-2.1148186">
<ele>1109</ele>
<time>2014-10-02T17:39:04Z</time>
</trkpt>
<trkpt lat="42.871265" lon="-2.1148214">
<ele>1109</ele>
<time>2014-10-02T17:39:06Z</time>
</trkpt>
<trkpt lat="42.87126" lon="-2.1148195">
<ele>1109</ele>
<time>2014-10-02T17:39:07Z</time>
</trkpt>
<trkpt lat="42.87126" lon="-2.1148202">
<ele>1109</ele>
<time>2014-10-02T17:39:10Z</time>
</trkpt>
<trkpt lat="42.87126" lon="-2.1148217">
<ele>1109</ele>
<time>2014-10-02T17:39:12Z</time>
</trkpt>
<trkpt lat="42.87126" lon="-2.1148214">
<ele>1109</ele>
<time>2014-10-02T17:39:14Z</time>
</trkpt>
<trkpt lat="42.87126" lon="-2.1148212">
<ele>1109</ele>
<time>2014-10-02T17:39:16Z</time>
</trkpt>
<trkpt lat="42.87126" lon="-2.1148212">
<ele>1109</ele>
<time>2014-10-02T17:39:18Z</time>
</trkpt>
<trkpt lat="42.87126" lon="-2.1148214">
<ele>1109</ele>
<time>2014-10-02T17:39:20Z</time>
</trkpt>
<trkpt lat="42.87126" lon="-2.1148214">
<ele>1109</ele>
<time>2014-10-02T17:39:22Z</time>
</trkpt>
<trkpt lat="42.87126" lon="-2.114821">
<ele>1109</ele>
<time>2014-10-02T17:39:24Z</time>
</trkpt>
<trkpt lat="42.87126" lon="-2.114821">
<ele>1109</ele>
<time>2014-10-02T17:39:26Z</time>
</trkpt>
<trkpt lat="42.87126" lon="-2.114821">
<ele>1109</ele>
<time>2014-10-02T17:39:28Z</time>
</trkpt>
<trkpt lat="42.871395" lon="-2.1147819">
<ele>1105</ele>
<time>2014-10-02T17:39:30Z</time>
</trkpt>
<trkpt lat="42.871525" lon="-2.1147592">
<ele>1104</ele>
<time>2014-10-02T17:39:32Z</time>
</trkpt>
<trkpt lat="42.87158" lon="-2.1147292">
<ele>1101</ele>
<time>2014-10-02T17:39:34Z</time>
</trkpt>
<trkpt lat="42.87164" lon="-2.1146314">
<ele>1098</ele>
<time>2014-10-02T17:39:36Z</time>
</trkpt>
<trkpt lat="42.87162" lon="-2.1143415">
<ele>1098</ele>
<time>2014-10-02T17:39:38Z</time>
</trkpt>
<trkpt lat="42.87157" lon="-2.114104">
<ele>1097</ele>
<time>2014-10-02T17:39:40Z</time>
</trkpt>
<trkpt lat="42.8716" lon="-2.1138036">
<ele>1096</ele>
<time>2014-10-02T17:39:42Z</time>
</trkpt>
<trkpt lat="42.87158" lon="-2.1135063">
<ele>1095</ele>
<time>2014-10-02T17:39:43Z</time>
</trkpt>
<trkpt lat="42.87159" lon="-2.1133087">
<ele>1093</ele>
<time>2014-10-02T17:39:46Z</time>
</trkpt>
<trkpt lat="42.87163" lon="-2.1130679">
<ele>1091</ele>
<time>2014-10-02T17:39:48Z</time>
</trkpt>
<trkpt lat="42.87169" lon="-2.1127868">
<ele>1091</ele>
<time>2014-10-02T17:39:50Z</time>
</trkpt>
<trkpt lat="42.871716" lon="-2.1126826">
<ele>1091</ele>
<time>2014-10-02T17:39:52Z</time>
</trkpt>
<trkpt lat="42.871773" lon="-2.1125076">
<ele>1090</ele>
<time>2014-10-02T17:39:54Z</time>
</trkpt>
<trkpt lat="42.871826" lon="-2.1123037">
<ele>1090</ele>
<time>2014-10-02T17:39:56Z</time>
</trkpt>
<trkpt lat="42.871864" lon="-2.1120186">
<ele>1089</ele>
<time>2014-10-02T17:39:58Z</time>
</trkpt>
<trkpt lat="42.87191" lon="-2.1117523">
<ele>1088</ele>
<time>2014-10-02T17:39:59Z</time>
</trkpt>
<trkpt lat="42.87198" lon="-2.11159">
<ele>1087</ele>
<time>2014-10-02T17:40:02Z</time>
</trkpt>
<trkpt lat="42.872013" lon="-2.111368">
<ele>1088</ele>
<time>2014-10-02T17:40:04Z</time>
</trkpt>
<trkpt lat="42.872066" lon="-2.1111789">
<ele>1089</ele>
<time>2014-10-02T17:40:06Z</time>
</trkpt>
<trkpt lat="42.872116" lon="-2.11091">
<ele>1086</ele>
<time>2014-10-02T17:40:08Z</time>
</trkpt>
<trkpt lat="42.872173" lon="-2.1106682">
<ele>1086</ele>
<time>2014-10-02T17:40:10Z</time>
</trkpt>
<trkpt lat="42.87224" lon="-2.110485">
<ele>1085</ele>
<time>2014-10-02T17:40:12Z</time>
</trkpt>
<trkpt lat="42.872272" lon="-2.1102357">
<ele>1087</ele>
<time>2014-10-02T17:40:14Z</time>
</trkpt>
<trkpt lat="42.872322" lon="-2.1100087">
<ele>1087</ele>
<time>2014-10-02T17:40:16Z</time>
</trkpt>
<trkpt lat="42.8724" lon="-2.1099226">
<ele>1086</ele>
<time>2014-10-02T17:40:18Z</time>
</trkpt>
<trkpt lat="42.87247" lon="-2.109766">
<ele>1088</ele>
<time>2014-10-02T17:40:20Z</time>
</trkpt>
<trkpt lat="42.87255" lon="-2.1096103">
<ele>1090</ele>
<time>2014-10-02T17:40:22Z</time>
</trkpt>
<trkpt lat="42.872623" lon="-2.1094887">
<ele>1090</ele>
<time>2014-10-02T17:40:23Z</time>
</trkpt>
<trkpt lat="42.872684" lon="-2.109255">
<ele>1091</ele>
<time>2014-10-02T17:40:26Z</time>
</trkpt>
<trkpt lat="42.872715" lon="-2.10899">
<ele>1091</ele>
<time>2014-10-02T17:40:28Z</time>
</trkpt>
<trkpt lat="42.872738" lon="-2.1087723">
<ele>1091</ele>
<time>2014-10-02T17:40:30Z</time>
</trkpt>
<trkpt lat="42.8728" lon="-2.1085749">
<ele>1093</ele>
<time>2014-10-02T17:40:31Z</time>
</trkpt>
<trkpt lat="42.872902" lon="-2.1084008">
<ele>1095</ele>
<time>2014-10-02T17:40:34Z</time>
</trkpt>
<trkpt lat="42.872932" lon="-2.1081538">
<ele>1095</ele>
<time>2014-10-02T17:40:36Z</time>
</trkpt>
<trkpt lat="42.872974" lon="-2.1079302">
<ele>1095</ele>
<time>2014-10-02T17:40:37Z</time>
</trkpt>
<trkpt lat="42.872932" lon="-2.1075761">
<ele>1095</ele>
<time>2014-10-02T17:40:40Z</time>
</trkpt>
<trkpt lat="42.872936" lon="-2.1073108">
<ele>1097</ele>
<time>2014-10-02T17:40:42Z</time>
</trkpt>
<trkpt lat="42.87296" lon="-2.1070855">
<ele>1096</ele>
<time>2014-10-02T17:40:43Z</time>
</trkpt>
<trkpt lat="42.873028" lon="-2.1068661">
<ele>1096</ele>
<time>2014-10-02T17:40:46Z</time>
</trkpt>
<trkpt lat="42.87311" lon="-2.1066096">
<ele>1102</ele>
<time>2014-10-02T17:40:48Z</time>
</trkpt>
<trkpt lat="42.87317" lon="-2.1064012">
<ele>1104</ele>
<time>2014-10-02T17:40:50Z</time>
</trkpt>
<trkpt lat="42.873226" lon="-2.106236">
<ele>1104</ele>
<time>2014-10-02T17:40:52Z</time>
</trkpt>
<trkpt lat="42.873272" lon="-2.1059804">
<ele>1106</ele>
<time>2014-10-02T17:40:54Z</time>
</trkpt>
<trkpt lat="42.87329" lon="-2.105805">
<ele>1109</ele>
<time>2014-10-02T17:40:56Z</time>
</trkpt>
<trkpt lat="42.873333" lon="-2.1055558">
<ele>1108</ele>
<time>2014-10-02T17:40:57Z</time>
</trkpt>
<trkpt lat="42.873425" lon="-2.105411">
<ele>1109</ele>
<time>2014-10-02T17:41:00Z</time>
</trkpt>
<trkpt lat="42.873474" lon="-2.1052108">
<ele>1109</ele>
<time>2014-10-02T17:41:02Z</time>
</trkpt>
<trkpt lat="42.873505" lon="-2.1050756">
<ele>1109</ele>
<time>2014-10-02T17:41:04Z</time>
</trkpt>
<trkpt lat="42.873528" lon="-2.1048613">
<ele>1109</ele>
<time>2014-10-02T17:41:06Z</time>
</trkpt>
<trkpt lat="42.873528" lon="-2.1046693">
<ele>1110</ele>
<time>2014-10-02T17:41:08Z</time>
</trkpt>
<trkpt lat="42.87353" lon="-2.1044545">
<ele>1111</ele>
<time>2014-10-02T17:41:10Z</time>
</trkpt>
<trkpt lat="42.87365" lon="-2.104354">
<ele>1110</ele>
<time>2014-10-02T17:41:12Z</time>
</trkpt>
<trkpt lat="42.87374" lon="-2.1041422">
<ele>1115</ele>
<time>2014-10-02T17:41:14Z</time>
</trkpt>
<trkpt lat="42.8738" lon="-2.1040246">
<ele>1117</ele>
<time>2014-10-02T17:41:16Z</time>
</trkpt>
<trkpt lat="42.87387" lon="-2.1038992">
<ele>1116</ele>
<time>2014-10-02T17:41:18Z</time>
</trkpt>
<trkpt lat="42.873955" lon="-2.1037283">
<ele>1114</ele>
<time>2014-10-02T17:41:20Z</time>
</trkpt>
<trkpt lat="42.874023" lon="-2.1035423">
<ele>1114</ele>
<time>2014-10-02T17:41:21Z</time>
</trkpt>
<trkpt lat="42.874077" lon="-2.103276">
<ele>1114</ele>
<time>2014-10-02T17:41:24Z</time>
</trkpt>
<trkpt lat="42.8741" lon="-2.103077">
<ele>1116</ele>
<time>2014-10-02T17:41:26Z</time>
</trkpt>
<trkpt lat="42.874157" lon="-2.1028855">
<ele>1119</ele>
<time>2014-10-02T17:41:27Z</time>
</trkpt>
<trkpt lat="42.874252" lon="-2.1026828">
<ele>1121</ele>
<time>2014-10-02T17:41:30Z</time>
</trkpt>
<trkpt lat="42.87436" lon="-2.1025276">
<ele>1121</ele>
<time>2014-10-02T17:41:31Z</time>
</trkpt>
<trkpt lat="42.87444" lon="-2.102386">
<ele>1122</ele>
<time>2014-10-02T17:41:33Z</time>
</trkpt>
<trkpt lat="42.874542" lon="-2.102239">
<ele>1122</ele>
<time>2014-10-02T17:41:36Z</time>
</trkpt>
<trkpt lat="42.874634" lon="-2.102103">
<ele>1123</ele>
<time>2014-10-02T17:41:38Z</time>
</trkpt>
<trkpt lat="42.87474" lon="-2.1020663">
<ele>1127</ele>
<time>2014-10-02T17:41:40Z</time>
</trkpt>
<trkpt lat="42.87483" lon="-2.101974">
<ele>1128</ele>
<time>2014-10-02T17:41:42Z</time>
</trkpt>
<trkpt lat="42.87495" lon="-2.1018848">
<ele>1131</ele>
<time>2014-10-02T17:41:44Z</time>
</trkpt>
<trkpt lat="42.875072" lon="-2.1018155">
<ele>1132</ele>
<time>2014-10-02T17:41:46Z</time>
</trkpt>
<trkpt lat="42.875187" lon="-2.1017516">
<ele>1133</ele>
<time>2014-10-02T17:41:48Z</time>
</trkpt>
<trkpt lat="42.875305" lon="-2.1016142">
<ele>1134</ele>
<time>2014-10-02T17:41:50Z</time>
</trkpt>
<trkpt lat="42.875404" lon="-2.1015043">
<ele>1136</ele>
<time>2014-10-02T17:41:52Z</time>
</trkpt>
<trkpt lat="42.875538" lon="-2.1013043">
<ele>1137</ele>
<time>2014-10-02T17:41:53Z</time>
</trkpt>
<trkpt lat="42.875652" lon="-2.101171">
<ele>1138</ele>
<time>2014-10-02T17:41:56Z</time>
</trkpt>
<trkpt lat="42.87577" lon="-2.1010697">
<ele>1139</ele>
<time>2014-10-02T17:41:58Z</time>
</trkpt>
<trkpt lat="42.875866" lon="-2.1009605">
<ele>1139</ele>
<time>2014-10-02T17:42:00Z</time>
</trkpt>
<trkpt lat="42.875988" lon="-2.1007233">
<ele>1143</ele>
<time>2014-10-02T17:42:02Z</time>
</trkpt>
<trkpt lat="42.876144" lon="-2.100614">
<ele>1147</ele>
<time>2014-10-02T17:42:04Z</time>
</trkpt>
<trkpt lat="42.87625" lon="-2.1004508">
<ele>1151</ele>
<time>2014-10-02T17:42:06Z</time>
</trkpt>
<trkpt lat="42.87637" lon="-2.1002717">
<ele>1152</ele>
<time>2014-10-02T17:42:08Z</time>
</trkpt>
<trkpt lat="42.87646" lon="-2.1000004">
<ele>1156</ele>
<time>2014-10-02T17:42:10Z</time>
</trkpt>
<trkpt lat="42.876587" lon="-2.099758">
<ele>1156</ele>
<time>2014-10-02T17:42:12Z</time>
</trkpt>
<trkpt lat="42.876682" lon="-2.099484">
<ele>1158</ele>
<time>2014-10-02T17:42:14Z</time>
</trkpt>
<trkpt lat="42.876736" lon="-2.0992224">
<ele>1162</ele>
<time>2014-10-02T17:42:16Z</time>
</trkpt>
<trkpt lat="42.87678" lon="-2.099196">
<ele>1162</ele>
<time>2014-10-02T17:42:17Z</time>
</trkpt>
<trkpt lat="42.876884" lon="-2.0989747">
<ele>1161</ele>
<time>2014-10-02T17:42:20Z</time>
</trkpt>
<trkpt lat="42.877018" lon="-2.0990667">
<ele>1164</ele>
<time>2014-10-02T17:42:22Z</time>
</trkpt>
<trkpt lat="42.87711" lon="-2.0990062">
<ele>1166</ele>
<time>2014-10-02T17:42:24Z</time>
</trkpt>
<trkpt lat="42.877224" lon="-2.099034">
<ele>1162</ele>
<time>2014-10-02T17:42:26Z</time>
</trkpt>
<trkpt lat="42.87733" lon="-2.0990705">
<ele>1161</ele>
<time>2014-10-02T17:42:28Z</time>
</trkpt>
<trkpt lat="42.877388" lon="-2.0990672">
<ele>1161</ele>
<time>2014-10-02T17:42:30Z</time>
</trkpt>
<trkpt lat="42.87747" lon="-2.0990956">
<ele>1160</ele>
<time>2014-10-02T17:42:32Z</time>
</trkpt>
<trkpt lat="42.87754" lon="-2.0991921">
<ele>1159</ele>
<time>2014-10-02T17:42:33Z</time>
</trkpt>
<trkpt lat="42.877647" lon="-2.0992904">
<ele>1159</ele>
<time>2014-10-02T17:42:36Z</time>
</trkpt>
<trkpt lat="42.877666" lon="-2.0994415">
<ele>1159</ele>
<time>2014-10-02T17:42:38Z</time>
</trkpt>
<trkpt lat="42.87768" lon="-2.0995877">
<ele>1157</ele>
<time>2014-10-02T17:42:39Z</time>
</trkpt>
<trkpt lat="42.877647" lon="-2.0997195">
<ele>1158</ele>
<time>2014-10-02T17:42:42Z</time>
</trkpt>
<trkpt lat="42.877632" lon="-2.0998309">
<ele>1157</ele>
<time>2014-10-02T17:42:44Z</time>
</trkpt>
<trkpt lat="42.877613" lon="-2.0999358">
<ele>1156</ele>
<time>2014-10-02T17:42:46Z</time>
</trkpt>
<trkpt lat="42.87757" lon="-2.1000545">
<ele>1154</ele>
<time>2014-10-02T17:42:48Z</time>
</trkpt>
<trkpt lat="42.877567" lon="-2.1001732">
<ele>1154</ele>
<time>2014-10-02T17:42:50Z</time>
</trkpt>
<trkpt lat="42.877556" lon="-2.1002994">
<ele>1154</ele>
<time>2014-10-02T17:42:52Z</time>
</trkpt>
<trkpt lat="42.877563" lon="-2.1004915">
<ele>1154</ele>
<time>2014-10-02T17:42:54Z</time>
</trkpt>
<trkpt lat="42.877495" lon="-2.1005023">
<ele>1154</ele>
<time>2014-10-02T17:42:56Z</time>
</trkpt>
<trkpt lat="42.877388" lon="-2.1005936">
<ele>1154</ele>
<time>2014-10-02T17:42:58Z</time>
</trkpt>
<trkpt lat="42.87727" lon="-2.1006608">
<ele>1153</ele>
<time>2014-10-02T17:42:59Z</time>
</trkpt>
<trkpt lat="42.877155" lon="-2.1007247">
<ele>1152</ele>
<time>2014-10-02T17:43:02Z</time>
</trkpt>
<trkpt lat="42.877045" lon="-2.100789">
<ele>1153</ele>
<time>2014-10-02T17:43:04Z</time>
</trkpt>
<trkpt lat="42.876923" lon="-2.100846">
<ele>1153</ele>
<time>2014-10-02T17:43:06Z</time>
</trkpt>
<trkpt lat="42.876778" lon="-2.1009033">
<ele>1153</ele>
<time>2014-10-02T17:43:08Z</time>
</trkpt>
<trkpt lat="42.8766" lon="-2.1010013">
<ele>1154</ele>
<time>2014-10-02T17:43:10Z</time>
</trkpt>
<trkpt lat="42.87645" lon="-2.1010742">
<ele>1156</ele>
<time>2014-10-02T17:43:12Z</time>
</trkpt>
<trkpt lat="42.876354" lon="-2.1011312">
<ele>1157</ele>
<time>2014-10-02T17:43:14Z</time>
</trkpt>
<trkpt lat="42.876266" lon="-2.1012025">
<ele>1155</ele>
<time>2014-10-02T17:43:16Z</time>
</trkpt>
<trkpt lat="42.87612" lon="-2.101252">
<ele>1154</ele>
<time>2014-10-02T17:43:17Z</time>
</trkpt>
<trkpt lat="42.875957" lon="-2.1012652">
<ele>1151</ele>
<time>2014-10-02T17:43:20Z</time>
</trkpt>
<trkpt lat="42.875793" lon="-2.1012805">
<ele>1150</ele>
<time>2014-10-02T17:43:21Z</time>
</trkpt>
<trkpt lat="42.87562" lon="-2.1013558">
<ele>1151</ele>
<time>2014-10-02T17:43:24Z</time>
</trkpt>
<trkpt lat="42.875446" lon="-2.101456">
<ele>1150</ele>
<time>2014-10-02T17:43:26Z</time>
</trkpt>
<trkpt lat="42.87535" lon="-2.1015325">
<ele>1148</ele>
<time>2014-10-02T17:43:28Z</time>
</trkpt>
<trkpt lat="42.875217" lon="-2.1016316">
<ele>1148</ele>
<time>2014-10-02T17:43:29Z</time>
</trkpt>
<trkpt lat="42.87509" lon="-2.1017745">
<ele>1151</ele>
<time>2014-10-02T17:43:32Z</time>
</trkpt>
<trkpt lat="42.874992" lon="-2.1018765">
<ele>1149</ele>
<time>2014-10-02T17:43:34Z</time>
</trkpt>
<trkpt lat="42.874985" lon="-2.1020122">
<ele>1149</ele>
<time>2014-10-02T17:43:35Z</time>
</trkpt>
<trkpt lat="42.874905" lon="-2.1021433">
<ele>1150</ele>
<time>2014-10-02T17:43:38Z</time>
</trkpt>
<trkpt lat="42.874783" lon="-2.1022348">
<ele>1150</ele>
<time>2014-10-02T17:43:40Z</time>
</trkpt>
<trkpt lat="42.87461" lon="-2.1022947">
<ele>1152</ele>
<time>2014-10-02T17:43:42Z</time>
</trkpt>
<trkpt lat="42.874466" lon="-2.102455">
<ele>1148</ele>
<time>2014-10-02T17:43:44Z</time>
</trkpt>
<trkpt lat="42.874344" lon="-2.1026108">
<ele>1144</ele>
<time>2014-10-02T17:43:46Z</time>
</trkpt>
<trkpt lat="42.874302" lon="-2.1027238">
<ele>1142</ele>
<time>2014-10-02T17:43:48Z</time>
</trkpt>
<trkpt lat="42.874317" lon="-2.102666">
<ele>1141</ele>
<time>2014-10-02T17:43:50Z</time>
</trkpt>
<trkpt lat="42.874523" lon="-2.1024957">
<ele>1138</ele>
<time>2014-10-02T17:43:52Z</time>
</trkpt>
<trkpt lat="42.874615" lon="-2.1022544">
<ele>1137</ele>
<time>2014-10-02T17:43:54Z</time>
</trkpt>
<trkpt lat="42.874695" lon="-2.1020534">
<ele>1138</ele>
<time>2014-10-02T17:43:56Z</time>
</trkpt>
<trkpt lat="42.874805" lon="-2.1018534">
<ele>1140</ele>
<time>2014-10-02T17:43:57Z</time>
</trkpt>
<trkpt lat="42.875" lon="-2.1017146">
<ele>1143</ele>
<time>2014-10-02T17:44:00Z</time>
</trkpt>
<trkpt lat="42.875164" lon="-2.1015382">
<ele>1150</ele>
<time>2014-10-02T17:44:01Z</time>
</trkpt>
<trkpt lat="42.875294" lon="-2.101362">
<ele>1161</ele>
<time>2014-10-02T17:44:04Z</time>
</trkpt>
<trkpt lat="42.875362" lon="-2.1011617">
<ele>1164</ele>
<time>2014-10-02T17:44:06Z</time>
</trkpt>
<trkpt lat="42.87543" lon="-2.1009595">
<ele>1164</ele>
<time>2014-10-02T17:44:08Z</time>
</trkpt>
<trkpt lat="42.875553" lon="-2.1007686">
<ele>1167</ele>
<time>2014-10-02T17:44:10Z</time>
</trkpt>
<trkpt lat="42.875607" lon="-2.1006894">
<ele>1170</ele>
<time>2014-10-02T17:44:12Z</time>
</trkpt>
<trkpt lat="42.87567" lon="-2.1004844">
<ele>1172</ele>
<time>2014-10-02T17:44:14Z</time>
</trkpt>
<trkpt lat="42.875835" lon="-2.1004505">
<ele>1171</ele>
<time>2014-10-02T17:44:15Z</time>
</trkpt>
<trkpt lat="42.87595" lon="-2.100382">
<ele>1177</ele>
<time>2014-10-02T17:44:18Z</time>
</trkpt>
<trkpt lat="42.87604" lon="-2.1003025">
<ele>1178</ele>
<time>2014-10-02T17:44:20Z</time>
</trkpt>
<trkpt lat="42.87615" lon="-2.1003878">
<ele>1174</ele>
<time>2014-10-02T17:44:22Z</time>
</trkpt>
<trkpt lat="42.87623" lon="-2.1004605">
<ele>1174</ele>
<time>2014-10-02T17:44:24Z</time>
</trkpt>
<trkpt lat="42.876133" lon="-2.1005948">
<ele>1174</ele>
<time>2014-10-02T17:44:26Z</time>
</trkpt>
<trkpt lat="42.876034" lon="-2.1006975">
<ele>1174</ele>
<time>2014-10-02T17:44:28Z</time>
</trkpt>
<trkpt lat="42.87595" lon="-2.100855">
<ele>1174</ele>
<time>2014-10-02T17:44:30Z</time>
</trkpt>
<trkpt lat="42.876026" lon="-2.1009846">
<ele>1179</ele>
<time>2014-10-02T17:44:32Z</time>
</trkpt>
<trkpt lat="42.876057" lon="-2.101105">
<ele>1183</ele>
<time>2014-10-02T17:44:34Z</time>
</trkpt>
<trkpt lat="42.87605" lon="-2.1011865">
<ele>1182</ele>
<time>2014-10-02T17:44:36Z</time>
</trkpt>
<trkpt lat="42.875923" lon="-2.101262">
<ele>1180</ele>
<time>2014-10-02T17:44:38Z</time>
</trkpt>
<trkpt lat="42.875782" lon="-2.1013544">
<ele>1178</ele>
<time>2014-10-02T17:44:40Z</time>
</trkpt>
<trkpt lat="42.875656" lon="-2.101428">
<ele>1177</ele>
<time>2014-10-02T17:44:42Z</time>
</trkpt>
<trkpt lat="42.8755" lon="-2.1014633">
<ele>1177</ele>
<time>2014-10-02T17:44:44Z</time>
</trkpt>
<trkpt lat="42.875328" lon="-2.1015322">
<ele>1177</ele>
<time>2014-10-02T17:44:46Z</time>
</trkpt>
<trkpt lat="42.875153" lon="-2.1016042">
<ele>1177</ele>
<time>2014-10-02T17:44:47Z</time>
</trkpt>
<trkpt lat="42.874947" lon="-2.1016612">
<ele>1180</ele>
<time>2014-10-02T17:44:50Z</time>
</trkpt>
<trkpt lat="42.874783" lon="-2.1018028">
<ele>1183</ele>
<time>2014-10-02T17:44:52Z</time>
</trkpt>
<trkpt lat="42.87468" lon="-2.1019">
<ele>1182</ele>
<time>2014-10-02T17:44:54Z</time>
</trkpt>
<trkpt lat="42.874554" lon="-2.1019971">
<ele>1181</ele>
<time>2014-10-02T17:44:55Z</time>
</trkpt>
<trkpt lat="42.874443" lon="-2.1021357">
<ele>1180</ele>
<time>2014-10-02T17:44:58Z</time>
</trkpt>
<trkpt lat="42.8745" lon="-2.1022391">
<ele>1178</ele>
<time>2014-10-02T17:45:00Z</time>
</trkpt>
<trkpt lat="42.874622" lon="-2.1022513">
<ele>1177</ele>
<time>2014-10-02T17:45:02Z</time>
</trkpt>
<trkpt lat="42.87473" lon="-2.1020565">
<ele>1176</ele>
<time>2014-10-02T17:45:04Z</time>
</trkpt>
<trkpt lat="42.874813" lon="-2.1018126">
<ele>1176</ele>
<time>2014-10-02T17:45:06Z</time>
</trkpt>
<trkpt lat="42.874912" lon="-2.1016147">
<ele>1176</ele>
<time>2014-10-02T17:45:08Z</time>
</trkpt>
<trkpt lat="42.87502" lon="-2.1014423">
<ele>1176</ele>
<time>2014-10-02T17:45:10Z</time>
</trkpt>
<trkpt lat="42.875137" lon="-2.1013217">
<ele>1179</ele>
<time>2014-10-02T17:45:12Z</time>
</trkpt>
<trkpt lat="42.875256" lon="-2.1011302">
<ele>1185</ele>
<time>2014-10-02T17:45:14Z</time>
</trkpt>
<trkpt lat="42.875374" lon="-2.1009765">
<ele>1185</ele>
<time>2014-10-02T17:45:16Z</time>
</trkpt>
<trkpt lat="42.875473" lon="-2.1008434">
<ele>1186</ele>
<time>2014-10-02T17:45:18Z</time>
</trkpt>
<trkpt lat="42.8756" lon="-2.1007378">
<ele>1188</ele>
<time>2014-10-02T17:45:20Z</time>
</trkpt>
<trkpt lat="42.87573" lon="-2.1006129">
<ele>1189</ele>
<time>2014-10-02T17:45:22Z</time>
</trkpt>
<trkpt lat="42.875862" lon="-2.1004581">
<ele>1190</ele>
<time>2014-10-02T17:45:24Z</time>
</trkpt>
<trkpt lat="42.875988" lon="-2.100272">
<ele>1191</ele>
<time>2014-10-02T17:45:26Z</time>
</trkpt>
<trkpt lat="42.876137" lon="-2.1002095">
<ele>1190</ele>
<time>2014-10-02T17:45:28Z</time>
</trkpt>
<trkpt lat="42.87627" lon="-2.1001186">
<ele>1190</ele>
<time>2014-10-02T17:45:29Z</time>
</trkpt>
<trkpt lat="42.876423" lon="-2.099977">
<ele>1193</ele>
<time>2014-10-02T17:45:32Z</time>
</trkpt>
<trkpt lat="42.876526" lon="-2.099928">
<ele>1194</ele>
<time>2014-10-02T17:45:33Z</time>
</trkpt>
<trkpt lat="42.87666" lon="-2.0998442">
<ele>1195</ele>
<time>2014-10-02T17:45:36Z</time>
</trkpt>
<trkpt lat="42.8768" lon="-2.0997963">
<ele>1194</ele>
<time>2014-10-02T17:45:38Z</time>
</trkpt>
<trkpt lat="42.876934" lon="-2.0997233">
<ele>1195</ele>
<time>2014-10-02T17:45:39Z</time>
</trkpt>
<trkpt lat="42.87703" lon="-2.0997458">
<ele>1194</ele>
<time>2014-10-02T17:45:42Z</time>
</trkpt>
<trkpt lat="42.87699" lon="-2.0999966">
<ele>1196</ele>
<time>2014-10-02T17:45:44Z</time>
</trkpt>
<trkpt lat="42.87697" lon="-2.1000745">
<ele>1197</ele>
<time>2014-10-02T17:45:46Z</time>
</trkpt>
<trkpt lat="42.876854" lon="-2.100138">
<ele>1198</ele>
<time>2014-10-02T17:45:47Z</time>
</trkpt>
<trkpt lat="42.876663" lon="-2.1001558">
<ele>1197</ele>
<time>2014-10-02T17:45:50Z</time>
</trkpt>
<trkpt lat="42.87648" lon="-2.1001794">
<ele>1197</ele>
<time>2014-10-02T17:45:52Z</time>
</trkpt>
<trkpt lat="42.876347" lon="-2.1001813">
<ele>1199</ele>
<time>2014-10-02T17:45:53Z</time>
</trkpt>
<trkpt lat="42.8762" lon="-2.1002517">
<ele>1199</ele>
<time>2014-10-02T17:45:56Z</time>
</trkpt>
<trkpt lat="42.876076" lon="-2.1002998">
<ele>1199</ele>
<time>2014-10-02T17:45:58Z</time>
</trkpt>
<trkpt lat="42.87594" lon="-2.100343">
<ele>1199</ele>
<time>2014-10-02T17:46:00Z</time>
</trkpt>
<trkpt lat="42.875813" lon="-2.1004047">
<ele>1199</ele>
<time>2014-10-02T17:46:02Z</time>
</trkpt>
<trkpt lat="42.875675" lon="-2.1004739">
<ele>1198</ele>
<time>2014-10-02T17:46:03Z</time>
</trkpt>
<trkpt lat="42.875557" lon="-2.1005235">
<ele>1197</ele>
<time>2014-10-02T17:46:06Z</time>
</trkpt>
<trkpt lat="42.875362" lon="-2.1005955">
<ele>1198</ele>
<time>2014-10-02T17:46:08Z</time>
</trkpt>
<trkpt lat="42.875305" lon="-2.1007156">
<ele>1197</ele>
<time>2014-10-02T17:46:10Z</time>
</trkpt>
<trkpt lat="42.875397" lon="-2.1008348">
<ele>1196</ele>
<time>2014-10-02T17:46:12Z</time>
</trkpt>
<trkpt lat="42.875515" lon="-2.1008747">
<ele>1197</ele>
<time>2014-10-02T17:46:14Z</time>
</trkpt>
<trkpt lat="42.87564" lon="-2.1006951">
<ele>1199</ele>
<time>2014-10-02T17:46:16Z</time>
</trkpt>
<trkpt lat="42.87579" lon="-2.100496">
<ele>1203</ele>
<time>2014-10-02T17:46:18Z</time>
</trkpt>
<trkpt lat="42.87593" lon="-2.1003606">
<ele>1200</ele>
<time>2014-10-02T17:46:20Z</time>
</trkpt>
<trkpt lat="42.876076" lon="-2.1002266">
<ele>1205</ele>
<time>2014-10-02T17:46:22Z</time>
</trkpt>
<trkpt lat="42.876205" lon="-2.1000593">
<ele>1206</ele>
<time>2014-10-02T17:46:24Z</time>
</trkpt>
<trkpt lat="42.87633" lon="-2.0999107">
<ele>1206</ele>
<time>2014-10-02T17:46:26Z</time>
</trkpt>
<trkpt lat="42.876476" lon="-2.099762">
<ele>1204</ele>
<time>2014-10-02T17:46:28Z</time>
</trkpt>
<trkpt lat="42.876617" lon="-2.0996122">
<ele>1206</ele>
<time>2014-10-02T17:46:30Z</time>
</trkpt>
<trkpt lat="42.876762" lon="-2.0994976">
<ele>1205</ele>
<time>2014-10-02T17:46:32Z</time>
</trkpt>
<trkpt lat="42.87689" lon="-2.0994985">
<ele>1205</ele>
<time>2014-10-02T17:46:34Z</time>
</trkpt>
<trkpt lat="42.877003" lon="-2.0995405">
<ele>1205</ele>
<time>2014-10-02T17:46:35Z</time>
</trkpt>
<trkpt lat="42.877018" lon="-2.0997298">
<ele>1208</ele>
<time>2014-10-02T17:46:38Z</time>
</trkpt>
<trkpt lat="42.876987" lon="-2.0998504">
<ele>1208</ele>
<time>2014-10-02T17:46:39Z</time>
</trkpt>
<trkpt lat="42.87685" lon="-2.0999079">
<ele>1208</ele>
<time>2014-10-02T17:46:42Z</time>
</trkpt>
<trkpt lat="42.87668" lon="-2.099924">
<ele>1208</ele>
<time>2014-10-02T17:46:44Z</time>
</trkpt>
<trkpt lat="42.876556" lon="-2.0999477">
<ele>1208</ele>
<time>2014-10-02T17:46:46Z</time>
</trkpt>
<trkpt lat="42.876427" lon="-2.0999856">
<ele>1208</ele>
<time>2014-10-02T17:46:48Z</time>
</trkpt>
<trkpt lat="42.876297" lon="-2.1000495">
<ele>1208</ele>
<time>2014-10-02T17:46:50Z</time>
</trkpt>
<trkpt lat="42.876167" lon="-2.1001976">
<ele>1207</ele>
<time>2014-10-02T17:46:52Z</time>
</trkpt>
<trkpt lat="42.876076" lon="-2.1002986">
<ele>1207</ele>
<time>2014-10-02T17:46:53Z</time>
</trkpt>
<trkpt lat="42.875935" lon="-2.1003962">
<ele>1207</ele>
<time>2014-10-02T17:46:56Z</time>
</trkpt>
<trkpt lat="42.875816" lon="-2.1005058">
<ele>1207</ele>
<time>2014-10-02T17:46:58Z</time>
</trkpt>
<trkpt lat="42.875675" lon="-2.1005735">
<ele>1207</ele>
<time>2014-10-02T17:47:00Z</time>
</trkpt>
<trkpt lat="42.87557" lon="-2.100642">
<ele>1207</ele>
<time>2014-10-02T17:47:02Z</time>
</trkpt>
<trkpt lat="42.875446" lon="-2.1007426">
<ele>1208</ele>
<time>2014-10-02T17:47:04Z</time>
</trkpt>
<trkpt lat="42.87534" lon="-2.1008518">
<ele>1209</ele>
<time>2014-10-02T17:47:06Z</time>
</trkpt>
<trkpt lat="42.875217" lon="-2.100968">
<ele>1209</ele>
<time>2014-10-02T17:47:08Z</time>
</trkpt>
<trkpt lat="42.875084" lon="-2.1010683">
<ele>1210</ele>
<time>2014-10-02T17:47:09Z</time>
</trkpt>
<trkpt lat="42.875027" lon="-2.10124">
<ele>1206</ele>
<time>2014-10-02T17:47:11Z</time>
</trkpt>
<trkpt lat="42.875015" lon="-2.101426">
<ele>1204</ele>
<time>2014-10-02T17:47:14Z</time>
</trkpt>
<trkpt lat="42.87501" lon="-2.1015413">
<ele>1204</ele>
<time>2014-10-02T17:47:16Z</time>
</trkpt>
<trkpt lat="42.875107" lon="-2.1015744">
<ele>1205</ele>
<time>2014-10-02T17:47:18Z</time>
</trkpt>
<trkpt lat="42.875343" lon="-2.101337">
<ele>1206</ele>
<time>2014-10-02T17:47:20Z</time>
</trkpt>
<trkpt lat="42.87548" lon="-2.1010642">
<ele>1206</ele>
<time>2014-10-02T17:47:22Z</time>
</trkpt>
<trkpt lat="42.875584" lon="-2.1008487">
<ele>1206</ele>
<time>2014-10-02T17:47:24Z</time>
</trkpt>
<trkpt lat="42.87568" lon="-2.1006646">
<ele>1207</ele>
<time>2014-10-02T17:47:26Z</time>
</trkpt>
<trkpt lat="42.87581" lon="-2.1005416">
<ele>1204</ele>
<time>2014-10-02T17:47:28Z</time>
</trkpt>
<trkpt lat="42.875935" lon="-2.100365">
<ele>1206</ele>
<time>2014-10-02T17:47:30Z</time>
</trkpt>
<trkpt lat="42.876076" lon="-2.1003156">
<ele>1206</ele>
<time>2014-10-02T17:47:32Z</time>
</trkpt>
<trkpt lat="42.876163" lon="-2.1003952">
<ele>1207</ele>
<time>2014-10-02T17:47:33Z</time>
</trkpt>
<trkpt lat="42.876225" lon="-2.1005075">
<ele>1205</ele>
<time>2014-10-02T17:47:35Z</time>
</trkpt>
<trkpt lat="42.87611" lon="-2.1006708">
<ele>1206</ele>
<time>2014-10-02T17:47:38Z</time>
</trkpt>
<trkpt lat="42.876087" lon="-2.100789">
<ele>1206</ele>
<time>2014-10-02T17:47:40Z</time>
</trkpt>
<trkpt lat="42.876102" lon="-2.1009588">
<ele>1205</ele>
<time>2014-10-02T17:47:42Z</time>
</trkpt>
<trkpt lat="42.876076" lon="-2.1011024">
<ele>1206</ele>
<time>2014-10-02T17:47:44Z</time>
</trkpt>
<trkpt lat="42.876076" lon="-2.1012454">
<ele>1206</ele>
<time>2014-10-02T17:47:46Z</time>
</trkpt>
<trkpt lat="42.87599" lon="-2.1013384">
<ele>1206</ele>
<time>2014-10-02T17:47:48Z</time>
</trkpt>
<trkpt lat="42.87579" lon="-2.1013727">
<ele>1205</ele>
<time>2014-10-02T17:47:50Z</time>
</trkpt>
<trkpt lat="42.875618" lon="-2.10142">
<ele>1206</ele>
<time>2014-10-02T17:47:52Z</time>
</trkpt>
<trkpt lat="42.875458" lon="-2.1014745">
<ele>1206</ele>
<time>2014-10-02T17:47:54Z</time>
</trkpt>
<trkpt lat="42.875298" lon="-2.1015193">
<ele>1206</ele>
<time>2014-10-02T17:47:56Z</time>
</trkpt>
<trkpt lat="42.875107" lon="-2.1015828">
<ele>1206</ele>
<time>2014-10-02T17:47:57Z</time>
</trkpt>
<trkpt lat="42.874947" lon="-2.1016474">
<ele>1206</ele>
<time>2014-10-02T17:48:00Z</time>
</trkpt>
<trkpt lat="42.87476" lon="-2.101736">
<ele>1206</ele>
<time>2014-10-02T17:48:02Z</time>
</trkpt>
<trkpt lat="42.87472" lon="-2.101909">
<ele>1205</ele>
<time>2014-10-02T17:48:04Z</time>
</trkpt>
<trkpt lat="42.87465" lon="-2.1020594">
<ele>1204</ele>
<time>2014-10-02T17:48:06Z</time>
</trkpt>
<trkpt lat="42.87452" lon="-2.1021554">
<ele>1204</ele>
<time>2014-10-02T17:48:08Z</time>
</trkpt>
<trkpt lat="42.874424" lon="-2.1022704">
<ele>1203</ele>
<time>2014-10-02T17:48:10Z</time>
</trkpt>
<trkpt lat="42.87438" lon="-2.102451">
<ele>1202</ele>
<time>2014-10-02T17:48:12Z</time>
</trkpt>
<trkpt lat="42.874302" lon="-2.1025956">
<ele>1201</ele>
<time>2014-10-02T17:48:14Z</time>
</trkpt>
<trkpt lat="42.874256" lon="-2.1027792">
<ele>1201</ele>
<time>2014-10-02T17:48:16Z</time>
</trkpt>
<trkpt lat="42.874218" lon="-2.1029506">
<ele>1198</ele>
<time>2014-10-02T17:48:18Z</time>
</trkpt>
<trkpt lat="42.874218" lon="-2.1031203">
<ele>1197</ele>
<time>2014-10-02T17:48:20Z</time>
</trkpt>
<trkpt lat="42.874313" lon="-2.1032267">
<ele>1192</ele>
<time>2014-10-02T17:48:21Z</time>
</trkpt>
<trkpt lat="42.87441" lon="-2.1032846">
<ele>1192</ele>
<time>2014-10-02T17:48:23Z</time>
</trkpt>
<trkpt lat="42.874516" lon="-2.103295">
<ele>1193</ele>
<time>2014-10-02T17:48:26Z</time>
</trkpt>
<trkpt lat="42.874626" lon="-2.103037">
<ele>1192</ele>
<time>2014-10-02T17:48:28Z</time>
</trkpt>
<trkpt lat="42.87473" lon="-2.1027763">
<ele>1191</ele>
<time>2014-10-02T17:48:30Z</time>
</trkpt>
<trkpt lat="42.87483" lon="-2.102556">
<ele>1191</ele>
<time>2014-10-02T17:48:32Z</time>
</trkpt>
<trkpt lat="42.87489" lon="-2.1022778">
<ele>1193</ele>
<time>2014-10-02T17:48:34Z</time>
</trkpt>
<trkpt lat="42.87496" lon="-2.1019845">
<ele>1192</ele>
<time>2014-10-02T17:48:35Z</time>
</trkpt>
<trkpt lat="42.875023" lon="-2.1017358">
<ele>1190</ele>
<time>2014-10-02T17:48:38Z</time>
</trkpt>
<trkpt lat="42.875114" lon="-2.1015084">
<ele>1193</ele>
<time>2014-10-02T17:48:40Z</time>
</trkpt>
<trkpt lat="42.875214" lon="-2.1013033">
<ele>1194</ele>
<time>2014-10-02T17:48:41Z</time>
</trkpt>
<trkpt lat="42.875343" lon="-2.1011353">
<ele>1196</ele>
<time>2014-10-02T17:48:44Z</time>
</trkpt>
<trkpt lat="42.875458" lon="-2.1009517">
<ele>1194</ele>
<time>2014-10-02T17:48:46Z</time>
</trkpt>
<trkpt lat="42.875557" lon="-2.1007748">
<ele>1194</ele>
<time>2014-10-02T17:48:48Z</time>
</trkpt>
<trkpt lat="42.8757" lon="-2.100619">
<ele>1196</ele>
<time>2014-10-02T17:48:50Z</time>
</trkpt>
<trkpt lat="42.875847" lon="-2.100502">
<ele>1196</ele>
<time>2014-10-02T17:48:52Z</time>
</trkpt>
<trkpt lat="42.875973" lon="-2.1003337">
<ele>1199</ele>
<time>2014-10-02T17:48:54Z</time>
</trkpt>
<trkpt lat="42.876106" lon="-2.10016">
<ele>1200</ele>
<time>2014-10-02T17:48:56Z</time>
</trkpt>
<trkpt lat="42.876236" lon="-2.099989">
<ele>1200</ele>
<time>2014-10-02T17:48:57Z</time>
</trkpt>
<trkpt lat="42.876354" lon="-2.0998008">
<ele>1200</ele>
<time>2014-10-02T17:49:00Z</time>
</trkpt>
<trkpt lat="42.876453" lon="-2.099505">
<ele>1198</ele>
<time>2014-10-02T17:49:01Z</time>
</trkpt>
<trkpt lat="42.876545" lon="-2.0992463">
<ele>1199</ele>
<time>2014-10-02T17:49:04Z</time>
</trkpt>
<trkpt lat="42.87661" lon="-2.0989552">
<ele>1198</ele>
<time>2014-10-02T17:49:06Z</time>
</trkpt>
<trkpt lat="42.876682" lon="-2.0986698">
<ele>1198</ele>
<time>2014-10-02T17:49:08Z</time>
</trkpt>
<trkpt lat="42.876766" lon="-2.0983093">
<ele>1199</ele>
<time>2014-10-02T17:49:10Z</time>
</trkpt>
<trkpt lat="42.8768" lon="-2.097978">
<ele>1199</ele>
<time>2014-10-02T17:49:12Z</time>
</trkpt>
<trkpt lat="42.87687" lon="-2.0977337">
<ele>1197</ele>
<time>2014-10-02T17:49:14Z</time>
</trkpt>
<trkpt lat="42.87696" lon="-2.0974448">
<ele>1197</ele>
<time>2014-10-02T17:49:15Z</time>
</trkpt>
<trkpt lat="42.877132" lon="-2.0974422">
<ele>1195</ele>
<time>2014-10-02T17:49:18Z</time>
</trkpt>
<trkpt lat="42.877266" lon="-2.0974119">
<ele>1194</ele>
<time>2014-10-02T17:49:20Z</time>
</trkpt>
<trkpt lat="42.877373" lon="-2.097512">
<ele>1194</ele>
<time>2014-10-02T17:49:22Z</time>
</trkpt>
<trkpt lat="42.877434" lon="-2.0976207">
<ele>1194</ele>
<time>2014-10-02T17:49:24Z</time>
</trkpt>
<trkpt lat="42.877483" lon="-2.0977306">
<ele>1192</ele>
<time>2014-10-02T17:49:26Z</time>
</trkpt>
<trkpt lat="42.87758" lon="-2.0978863">
<ele>1191</ele>
<time>2014-10-02T17:49:28Z</time>
</trkpt>
<trkpt lat="42.87763" lon="-2.0979984">
<ele>1187</ele>
<time>2014-10-02T17:49:29Z</time>
</trkpt>
<trkpt lat="42.877674" lon="-2.0981574">
<ele>1189</ele>
<time>2014-10-02T17:49:32Z</time>
</trkpt>
<trkpt lat="42.87771" lon="-2.0982718">
<ele>1189</ele>
<time>2014-10-02T17:49:33Z</time>
</trkpt>
<trkpt lat="42.877743" lon="-2.0984113">
<ele>1189</ele>
<time>2014-10-02T17:49:36Z</time>
</trkpt>
<trkpt lat="42.87777" lon="-2.098527">
<ele>1189</ele>
<time>2014-10-02T17:49:38Z</time>
</trkpt>
<trkpt lat="42.877804" lon="-2.098651">
<ele>1189</ele>
<time>2014-10-02T17:49:40Z</time>
</trkpt>
<trkpt lat="42.877827" lon="-2.0987978">
<ele>1189</ele>
<time>2014-10-02T17:49:42Z</time>
</trkpt>
<trkpt lat="42.877876" lon="-2.0989883">
<ele>1188</ele>
<time>2014-10-02T17:49:43Z</time>
</trkpt>
<trkpt lat="42.87791" lon="-2.0990536">
<ele>1187</ele>
<time>2014-10-02T17:49:46Z</time>
</trkpt>
<trkpt lat="42.877956" lon="-2.0992038">
<ele>1186</ele>
<time>2014-10-02T17:49:48Z</time>
</trkpt>
<trkpt lat="42.877983" lon="-2.0993">
<ele>1186</ele>
<time>2014-10-02T17:49:50Z</time>
</trkpt>
<trkpt lat="42.878002" lon="-2.099414">
<ele>1186</ele>
<time>2014-10-02T17:49:52Z</time>
</trkpt>
<trkpt lat="42.87799" lon="-2.0995078">
<ele>1184</ele>
<time>2014-10-02T17:49:54Z</time>
</trkpt>
<trkpt lat="42.877953" lon="-2.0996153">
<ele>1184</ele>
<time>2014-10-02T17:49:56Z</time>
</trkpt>
<trkpt lat="42.877953" lon="-2.099757">
<ele>1181</ele>
<time>2014-10-02T17:49:58Z</time>
</trkpt>
<trkpt lat="42.87792" lon="-2.0998297">
<ele>1179</ele>
<time>2014-10-02T17:50:00Z</time>
</trkpt>
<trkpt lat="42.877888" lon="-2.0998938">
<ele>1175</ele>
<time>2014-10-02T17:50:02Z</time>
</trkpt>
<trkpt lat="42.877834" lon="-2.1000295">
<ele>1174</ele>
<time>2014-10-02T17:50:04Z</time>
</trkpt>
<trkpt lat="42.87779" lon="-2.100146">
<ele>1171</ele>
<time>2014-10-02T17:50:06Z</time>
</trkpt>
<trkpt lat="42.87776" lon="-2.1002607">
<ele>1171</ele>
<time>2014-10-02T17:50:08Z</time>
</trkpt>
<trkpt lat="42.877712" lon="-2.100364">
<ele>1168</ele>
<time>2014-10-02T17:50:10Z</time>
</trkpt>
<trkpt lat="42.877674" lon="-2.1004915">
<ele>1167</ele>
<time>2014-10-02T17:50:12Z</time>
</trkpt>
<trkpt lat="42.877625" lon="-2.1005685">
<ele>1167</ele>
<time>2014-10-02T17:50:14Z</time>
</trkpt>
<trkpt lat="42.877483" lon="-2.1006336">
<ele>1164</ele>
<time>2014-10-02T17:50:16Z</time>
</trkpt>
<trkpt lat="42.87737" lon="-2.100692">
<ele>1162</ele>
<time>2014-10-02T17:50:18Z</time>
</trkpt>
<trkpt lat="42.877247" lon="-2.100796">
<ele>1163</ele>
<time>2014-10-02T17:50:20Z</time>
</trkpt>
<trkpt lat="42.877144" lon="-2.1008635">
<ele>1161</ele>
<time>2014-10-02T17:50:22Z</time>
</trkpt>
<trkpt lat="42.877018" lon="-2.1009307">
<ele>1158</ele>
<time>2014-10-02T17:50:23Z</time>
</trkpt>
<trkpt lat="42.87684" lon="-2.1009867">
<ele>1152</ele>
<time>2014-10-02T17:50:26Z</time>
</trkpt>
<trkpt lat="42.876705" lon="-2.1010456">
<ele>1150</ele>
<time>2014-10-02T17:50:27Z</time>
</trkpt>
<trkpt lat="42.87655" lon="-2.1010962">
<ele>1149</ele>
<time>2014-10-02T17:50:30Z</time>
</trkpt>
<trkpt lat="42.87635" lon="-2.1011262">
<ele>1148</ele>
<time>2014-10-02T17:50:32Z</time>
</trkpt>
<trkpt lat="42.87621" lon="-2.1011822">
<ele>1146</ele>
<time>2014-10-02T17:50:34Z</time>
</trkpt>
<trkpt lat="42.87601" lon="-2.1013346">
<ele>1143</ele>
<time>2014-10-02T17:50:37Z</time>
</trkpt>
<trkpt lat="42.87588" lon="-2.1013932">
<ele>1143</ele>
<time>2014-10-02T17:50:39Z</time>
</trkpt>
<trkpt lat="42.875725" lon="-2.101443">
<ele>1143</ele>
<time>2014-10-02T17:50:40Z</time>
</trkpt>
<trkpt lat="42.875584" lon="-2.101492">
<ele>1143</ele>
<time>2014-10-02T17:50:43Z</time>
</trkpt>
<trkpt lat="42.87547" lon="-2.1015942">
<ele>1141</ele>
<time>2014-10-02T17:50:45Z</time>
</trkpt>
<trkpt lat="42.87536" lon="-2.101705">
<ele>1141</ele>
<time>2014-10-02T17:50:47Z</time>
</trkpt>
<trkpt lat="42.875244" lon="-2.1018066">
<ele>1140</ele>
<time>2014-10-02T17:50:49Z</time>
</trkpt>
<trkpt lat="42.875084" lon="-2.1018643">
<ele>1140</ele>
<time>2014-10-02T17:50:51Z</time>
</trkpt>
<trkpt lat="42.874855" lon="-2.1019862">
<ele>1141</ele>
<time>2014-10-02T17:50:53Z</time>
</trkpt>
<trkpt lat="42.874718" lon="-2.1019378">
<ele>1144</ele>
<time>2014-10-02T17:50:55Z</time>
</trkpt>
<trkpt lat="42.87454" lon="-2.1019998">
<ele>1143</ele>
<time>2014-10-02T17:50:56Z</time>
</trkpt>
<trkpt lat="42.874413" lon="-2.102127">
<ele>1141</ele>
<time>2014-10-02T17:50:59Z</time>
</trkpt>
<trkpt lat="42.87433" lon="-2.102227">
<ele>1138</ele>
<time>2014-10-02T17:51:01Z</time>
</trkpt>
<trkpt lat="42.87422" lon="-2.1023626">
<ele>1137</ele>
<time>2014-10-02T17:51:03Z</time>
</trkpt>
<trkpt lat="42.874134" lon="-2.1024964">
<ele>1136</ele>
<time>2014-10-02T17:51:05Z</time>
</trkpt>
<trkpt lat="42.874115" lon="-2.1026528">
<ele>1137</ele>
<time>2014-10-02T17:51:07Z</time>
</trkpt>
<trkpt lat="42.874096" lon="-2.1027966">
<ele>1138</ele>
<time>2014-10-02T17:51:09Z</time>
</trkpt>
<trkpt lat="42.874058" lon="-2.1029358">
<ele>1138</ele>
<time>2014-10-02T17:51:10Z</time>
</trkpt>
<trkpt lat="42.874073" lon="-2.1031117">
<ele>1137</ele>
<time>2014-10-02T17:51:13Z</time>
</trkpt>
<trkpt lat="42.874176" lon="-2.1030643">
<ele>1133</ele>
<time>2014-10-02T17:51:15Z</time>
</trkpt>
<trkpt lat="42.874317" lon="-2.1028922">
<ele>1129</ele>
<time>2014-10-02T17:51:17Z</time>
</trkpt>
<trkpt lat="42.8744" lon="-2.1027184">
<ele>1128</ele>
<time>2014-10-02T17:51:19Z</time>
</trkpt>
<trkpt lat="42.87447" lon="-2.1025264">
<ele>1128</ele>
<time>2014-10-02T17:51:21Z</time>
</trkpt>
<trkpt lat="42.874516" lon="-2.1022286">
<ele>1134</ele>
<time>2014-10-02T17:51:23Z</time>
</trkpt>
<trkpt lat="42.8746" lon="-2.1019871">
<ele>1139</ele>
<time>2014-10-02T17:51:24Z</time>
</trkpt>
<trkpt lat="42.874767" lon="-2.1018703">
<ele>1146</ele>
<time>2014-10-02T17:51:27Z</time>
</trkpt>
<trkpt lat="42.874897" lon="-2.1017618">
<ele>1150</ele>
<time>2014-10-02T17:51:29Z</time>
</trkpt>
<trkpt lat="42.87501" lon="-2.1016088">
<ele>1150</ele>
<time>2014-10-02T17:51:31Z</time>
</trkpt>
<trkpt lat="42.875134" lon="-2.1014652">
<ele>1150</ele>
<time>2014-10-02T17:51:33Z</time>
</trkpt>
<trkpt lat="42.875244" lon="-2.101347">
<ele>1151</ele>
<time>2014-10-02T17:51:35Z</time>
</trkpt>
<trkpt lat="42.875324" lon="-2.101156">
<ele>1151</ele>
<time>2014-10-02T17:51:36Z</time>
</trkpt>
<trkpt lat="42.87544" lon="-2.1009843">
<ele>1151</ele>
<time>2014-10-02T17:51:39Z</time>
</trkpt>
<trkpt lat="42.875546" lon="-2.1009">
<ele>1158</ele>
<time>2014-10-02T17:51:41Z</time>
</trkpt>
<trkpt lat="42.875687" lon="-2.1006951">
<ele>1159</ele>
<time>2014-10-02T17:51:43Z</time>
</trkpt>
<trkpt lat="42.875805" lon="-2.1005304">
<ele>1157</ele>
<time>2014-10-02T17:51:45Z</time>
</trkpt>
<trkpt lat="42.875957" lon="-2.1004717">
<ele>1157</ele>
<time>2014-10-02T17:51:47Z</time>
</trkpt>
<trkpt lat="42.87611" lon="-2.1004028">
<ele>1156</ele>
<time>2014-10-02T17:51:49Z</time>
</trkpt>
<trkpt lat="42.87625" lon="-2.100231">
<ele>1159</ele>
<time>2014-10-02T17:51:51Z</time>
</trkpt>
<trkpt lat="42.87639" lon="-2.1001499">
<ele>1159</ele>
<time>2014-10-02T17:51:53Z</time>
</trkpt>
<trkpt lat="42.876442" lon="-2.1003695">
<ele>1161</ele>
<time>2014-10-02T17:51:54Z</time>
</trkpt>
<trkpt lat="42.8765" lon="-2.1004913">
<ele>1162</ele>
<time>2014-10-02T17:51:57Z</time>
</trkpt>
<trkpt lat="42.87651" lon="-2.100578">
<ele>1164</ele>
<time>2014-10-02T17:51:59Z</time>
</trkpt>
<trkpt lat="42.876286" lon="-2.1006088">
<ele>1163</ele>
<time>2014-10-02T17:52:01Z</time>
</trkpt>
<trkpt lat="42.876144" lon="-2.1006634">
<ele>1162</ele>
<time>2014-10-02T17:52:03Z</time>
</trkpt>
<trkpt lat="42.875957" lon="-2.1006696">
<ele>1163</ele>
<time>2014-10-02T17:52:05Z</time>
</trkpt>
<trkpt lat="42.875828" lon="-2.100691">
<ele>1162</ele>
<time>2014-10-02T17:52:07Z</time>
</trkpt>
<trkpt lat="42.875717" lon="-2.1007705">
<ele>1161</ele>
<time>2014-10-02T17:52:09Z</time>
</trkpt>
<trkpt lat="42.87562" lon="-2.1008904">
<ele>1160</ele>
<time>2014-10-02T17:52:11Z</time>
</trkpt>
<trkpt lat="42.875496" lon="-2.1009855">
<ele>1159</ele>
<time>2014-10-02T17:52:13Z</time>
</trkpt>
<trkpt lat="42.875435" lon="-2.1011195">
<ele>1161</ele>
<time>2014-10-02T17:52:15Z</time>
</trkpt>
<trkpt lat="42.875393" lon="-2.101235">
<ele>1161</ele>
<time>2014-10-02T17:52:17Z</time>
</trkpt>
<trkpt lat="42.875347" lon="-2.1013467">
<ele>1163</ele>
<time>2014-10-02T17:52:19Z</time>
</trkpt>
<trkpt lat="42.87521" lon="-2.1014318">
<ele>1164</ele>
<time>2014-10-02T17:52:21Z</time>
</trkpt>
<trkpt lat="42.875088" lon="-2.101465">
<ele>1167</ele>
<time>2014-10-02T17:52:22Z</time>
</trkpt>
<trkpt lat="42.87495" lon="-2.1015837">
<ele>1171</ele>
<time>2014-10-02T17:52:25Z</time>
</trkpt>
<trkpt lat="42.874832" lon="-2.10169">
<ele>1171</ele>
<time>2014-10-02T17:52:26Z</time>
</trkpt>
<trkpt lat="42.87487" lon="-2.1018515">
<ele>1170</ele>
<time>2014-10-02T17:52:29Z</time>
</trkpt>
<trkpt lat="42.87491" lon="-2.1019468">
<ele>1170</ele>
<time>2014-10-02T17:52:31Z</time>
</trkpt>
<trkpt lat="42.87505" lon="-2.1018212">
<ele>1169</ele>
<time>2014-10-02T17:52:33Z</time>
</trkpt>
<trkpt lat="42.875164" lon="-2.10162">
<ele>1167</ele>
<time>2014-10-02T17:52:35Z</time>
</trkpt>
<trkpt lat="42.875248" lon="-2.101335">
<ele>1176</ele>
<time>2014-10-02T17:52:37Z</time>
</trkpt>
<trkpt lat="42.87532" lon="-2.1011567">
<ele>1177</ele>
<time>2014-10-02T17:52:39Z</time>
</trkpt>
<trkpt lat="42.875435" lon="-2.1009793">
<ele>1177</ele>
<time>2014-10-02T17:52:41Z</time>
</trkpt>
<trkpt lat="42.875553" lon="-2.1007602">
<ele>1179</ele>
<time>2014-10-02T17:52:43Z</time>
</trkpt>
<trkpt lat="42.87566" lon="-2.1006007">
<ele>1180</ele>
<time>2014-10-02T17:52:45Z</time>
</trkpt>
<trkpt lat="42.875786" lon="-2.1004055">
<ele>1183</ele>
<time>2014-10-02T17:52:47Z</time>
</trkpt>
<trkpt lat="42.87592" lon="-2.100217">
<ele>1185</ele>
<time>2014-10-02T17:52:49Z</time>
</trkpt>
<trkpt lat="42.876072" lon="-2.100166">
<ele>1184</ele>
<time>2014-10-02T17:52:51Z</time>
</trkpt>
<trkpt lat="42.876217" lon="-2.0999641">
<ele>1184</ele>
<time>2014-10-02T17:52:53Z</time>
</trkpt>
<trkpt lat="42.876278" lon="-2.1000977">
<ele>1186</ele>
<time>2014-10-02T17:52:55Z</time>
</trkpt>
<trkpt lat="42.87634" lon="-2.1002016">
<ele>1186</ele>
<time>2014-10-02T17:52:56Z</time>
</trkpt>
<trkpt lat="42.876114" lon="-2.1002872">
<ele>1182</ele>
<time>2014-10-02T17:52:58Z</time>
</trkpt>
<trkpt lat="42.87596" lon="-2.1003587">
<ele>1184</ele>
<time>2014-10-02T17:53:01Z</time>
</trkpt>
<trkpt lat="42.875862" lon="-2.1003988">
<ele>1184</ele>
<time>2014-10-02T17:53:03Z</time>
</trkpt>
<trkpt lat="42.87575" lon="-2.100494">
<ele>1183</ele>
<time>2014-10-02T17:53:04Z</time>
</trkpt>
<trkpt lat="42.875675" lon="-2.1006947">
<ele>1184</ele>
<time>2014-10-02T17:53:07Z</time>
</trkpt>
<trkpt lat="42.875553" lon="-2.1007535">
<ele>1185</ele>
<time>2014-10-02T17:53:09Z</time>
</trkpt>
<trkpt lat="42.875454" lon="-2.100825">
<ele>1185</ele>
<time>2014-10-02T17:53:11Z</time>
</trkpt>
<trkpt lat="42.87538" lon="-2.1009839">
<ele>1186</ele>
<time>2014-10-02T17:53:13Z</time>
</trkpt>
<trkpt lat="42.875465" lon="-2.1010833">
<ele>1188</ele>
<time>2014-10-02T17:53:15Z</time>
</trkpt>
<trkpt lat="42.875504" lon="-2.101141">
<ele>1185</ele>
<time>2014-10-02T17:53:17Z</time>
</trkpt>
<trkpt lat="42.875595" lon="-2.1011662">
<ele>1184</ele>
<time>2014-10-02T17:53:19Z</time>
</trkpt>
<trkpt lat="42.87572" lon="-2.1011">
<ele>1184</ele>
<time>2014-10-02T17:53:21Z</time>
</trkpt>
<trkpt lat="42.875843" lon="-2.100778">
<ele>1187</ele>
<time>2014-10-02T17:53:23Z</time>
</trkpt>
<trkpt lat="42.875942" lon="-2.100594">
<ele>1190</ele>
<time>2014-10-02T17:53:25Z</time>
</trkpt>
<trkpt lat="42.876072" lon="-2.1004066">
<ele>1192</ele>
<time>2014-10-02T17:53:27Z</time>
</trkpt>
<trkpt lat="42.87619" lon="-2.1002946">
<ele>1195</ele>
<time>2014-10-02T17:53:29Z</time>
</trkpt>
<trkpt lat="42.876316" lon="-2.1002328">
<ele>1196</ele>
<time>2014-10-02T17:53:31Z</time>
</trkpt>
<trkpt lat="42.876373" lon="-2.1003132">
<ele>1196</ele>
<time>2014-10-02T17:53:33Z</time>
</trkpt>
<trkpt lat="42.876297" lon="-2.1004097">
<ele>1196</ele>
<time>2014-10-02T17:53:35Z</time>
</trkpt>
<trkpt lat="42.876163" lon="-2.1004841">
<ele>1194</ele>
<time>2014-10-02T17:53:36Z</time>
</trkpt>
<trkpt lat="42.876022" lon="-2.1005752">
<ele>1196</ele>
<time>2014-10-02T17:53:39Z</time>
</trkpt>
<trkpt lat="42.875862" lon="-2.100654">
<ele>1196</ele>
<time>2014-10-02T17:53:41Z</time>
</trkpt>
<trkpt lat="42.875687" lon="-2.1007063">
<ele>1197</ele>
<time>2014-10-02T17:53:43Z</time>
</trkpt>
<trkpt lat="42.87552" lon="-2.1007557">
<ele>1199</ele>
<time>2014-10-02T17:53:45Z</time>
</trkpt>
<trkpt lat="42.87542" lon="-2.1008584">
<ele>1198</ele>
<time>2014-10-02T17:53:47Z</time>
</trkpt>
<trkpt lat="42.875317" lon="-2.1009552">
<ele>1200</ele>
<time>2014-10-02T17:53:49Z</time>
</trkpt>
<trkpt lat="42.87522" lon="-2.1010633">
<ele>1200</ele>
<time>2014-10-02T17:53:50Z</time>
</trkpt>
<trkpt lat="42.875248" lon="-2.1012235">
<ele>1200</ele>
<time>2014-10-02T17:53:53Z</time>
</trkpt>
<trkpt lat="42.87527" lon="-2.1013024">
<ele>1198</ele>
<time>2014-10-02T17:53:54Z</time>
</trkpt>
<trkpt lat="42.875423" lon="-2.1012838">
<ele>1198</ele>
<time>2014-10-02T17:53:56Z</time>
</trkpt>
<trkpt lat="42.87558" lon="-2.101241">
<ele>1198</ele>
<time>2014-10-02T17:53:59Z</time>
</trkpt>
<trkpt lat="42.87568" lon="-2.1008844">
<ele>1198</ele>
<time>2014-10-02T17:54:01Z</time>
</trkpt>
<trkpt lat="42.875805" lon="-2.1004891">
<ele>1202</ele>
<time>2014-10-02T17:54:03Z</time>
</trkpt>
<trkpt lat="42.8759" lon="-2.1002479">
<ele>1200</ele>
<time>2014-10-02T17:54:05Z</time>
</trkpt>
<trkpt lat="42.87604" lon="-2.1000443">
<ele>1202</ele>
<time>2014-10-02T17:54:07Z</time>
</trkpt>
<trkpt lat="42.876186" lon="-2.0999336">
<ele>1203</ele>
<time>2014-10-02T17:54:09Z</time>
</trkpt>
<trkpt lat="42.876328" lon="-2.0998197">
<ele>1203</ele>
<time>2014-10-02T17:54:11Z</time>
</trkpt>
<trkpt lat="42.876453" lon="-2.0997012">
<ele>1203</ele>
<time>2014-10-02T17:54:13Z</time>
</trkpt>
<trkpt lat="42.876602" lon="-2.0996103">
<ele>1203</ele>
<time>2014-10-02T17:54:14Z</time>
</trkpt>
<trkpt lat="42.876724" lon="-2.0997121">
<ele>1201</ele>
<time>2014-10-02T17:54:16Z</time>
</trkpt>
<trkpt lat="42.87677" lon="-2.099853">
<ele>1201</ele>
<time>2014-10-02T17:54:19Z</time>
</trkpt>
<trkpt lat="42.87658" lon="-2.0999844">
<ele>1201</ele>
<time>2014-10-02T17:54:21Z</time>
</trkpt>
<trkpt lat="42.87643" lon="-2.1000488">
<ele>1201</ele>
<time>2014-10-02T17:54:23Z</time>
</trkpt>
<trkpt lat="42.876297" lon="-2.1001139">
<ele>1203</ele>
<time>2014-10-02T17:54:25Z</time>
</trkpt>
<trkpt lat="42.876183" lon="-2.100233">
<ele>1202</ele>
<time>2014-10-02T17:54:27Z</time>
</trkpt>
<trkpt lat="42.876053" lon="-2.1002834">
<ele>1204</ele>
<time>2014-10-02T17:54:29Z</time>
</trkpt>
<trkpt lat="42.87591" lon="-2.1003196">
<ele>1204</ele>
<time>2014-10-02T17:54:31Z</time>
</trkpt>
<trkpt lat="42.875774" lon="-2.100355">
<ele>1204</ele>
<time>2014-10-02T17:54:33Z</time>
</trkpt>
<trkpt lat="42.875626" lon="-2.100444">
<ele>1205</ele>
<time>2014-10-02T17:54:35Z</time>
</trkpt>
<trkpt lat="42.875515" lon="-2.1005018">
<ele>1205</ele>
<time>2014-10-02T17:54:37Z</time>
</trkpt>
<trkpt lat="42.87544" lon="-2.1006064">
<ele>1204</ele>
<time>2014-10-02T17:54:38Z</time>
</trkpt>
<trkpt lat="42.87536" lon="-2.1007648">
<ele>1204</ele>
<time>2014-10-02T17:54:40Z</time>
</trkpt>
<trkpt lat="42.87533" lon="-2.1009023">
<ele>1203</ele>
<time>2014-10-02T17:54:43Z</time>
</trkpt>
<trkpt lat="42.875217" lon="-2.1010122">
<ele>1200</ele>
<time>2014-10-02T17:54:44Z</time>
</trkpt>
<trkpt lat="42.87512" lon="-2.1011302">
<ele>1203</ele>
<time>2014-10-02T17:54:47Z</time>
</trkpt>
<trkpt lat="42.875027" lon="-2.1012497">
<ele>1203</ele>
<time>2014-10-02T17:54:49Z</time>
</trkpt>
<trkpt lat="42.874947" lon="-2.1013806">
<ele>1203</ele>
<time>2014-10-02T17:54:50Z</time>
</trkpt>
<trkpt lat="42.87499" lon="-2.1015484">
<ele>1202</ele>
<time>2014-10-02T17:54:53Z</time>
</trkpt>
<trkpt lat="42.875057" lon="-2.10165">
<ele>1201</ele>
<time>2014-10-02T17:54:54Z</time>
</trkpt>
<trkpt lat="42.87521" lon="-2.1015944">
<ele>1202</ele>
<time>2014-10-02T17:54:57Z</time>
</trkpt>
<trkpt lat="42.87534" lon="-2.1015244">
<ele>1201</ele>
<time>2014-10-02T17:54:59Z</time>
</trkpt>
<trkpt lat="42.875446" lon="-2.1013255">
<ele>1198</ele>
<time>2014-10-02T17:55:01Z</time>
</trkpt>
<trkpt lat="42.87557" lon="-2.1009667">
<ele>1201</ele>
<time>2014-10-02T17:55:03Z</time>
</trkpt>
<trkpt lat="42.875683" lon="-2.1007626">
<ele>1201</ele>
<time>2014-10-02T17:55:05Z</time>
</trkpt>
<trkpt lat="42.8758" lon="-2.1006055">
<ele>1200</ele>
<time>2014-10-02T17:55:07Z</time>
</trkpt>
<trkpt lat="42.87593" lon="-2.1004224">
<ele>1200</ele>
<time>2014-10-02T17:55:09Z</time>
</trkpt>
<trkpt lat="42.876072" lon="-2.1002285">
<ele>1201</ele>
<time>2014-10-02T17:55:11Z</time>
</trkpt>
<trkpt lat="42.87619" lon="-2.1000059">
<ele>1200</ele>
<time>2014-10-02T17:55:13Z</time>
</trkpt>
<trkpt lat="42.87631" lon="-2.0998251">
<ele>1199</ele>
<time>2014-10-02T17:55:15Z</time>
</trkpt>
<trkpt lat="42.87644" lon="-2.0996962">
<ele>1198</ele>
<time>2014-10-02T17:55:17Z</time>
</trkpt>
<trkpt lat="42.876556" lon="-2.0994813">
<ele>1200</ele>
<time>2014-10-02T17:55:19Z</time>
</trkpt>
<trkpt lat="42.876713" lon="-2.0993416">
<ele>1199</ele>
<time>2014-10-02T17:55:21Z</time>
</trkpt>
<trkpt lat="42.87684" lon="-2.0993109">
<ele>1197</ele>
<time>2014-10-02T17:55:23Z</time>
</trkpt>
<trkpt lat="42.876892" lon="-2.0994062">
<ele>1199</ele>
<time>2014-10-02T17:55:25Z</time>
</trkpt>
<trkpt lat="42.876842" lon="-2.099454">
<ele>1198</ele>
<time>2014-10-02T17:55:27Z</time>
</trkpt>
<trkpt lat="42.87667" lon="-2.099585">
<ele>1200</ele>
<time>2014-10-02T17:55:29Z</time>
</trkpt>
<trkpt lat="42.876587" lon="-2.0996714">
<ele>1201</ele>
<time>2014-10-02T17:55:31Z</time>
</trkpt>
<trkpt lat="42.876526" lon="-2.099798">
<ele>1200</ele>
<time>2014-10-02T17:55:33Z</time>
</trkpt>
<trkpt lat="42.876427" lon="-2.099898">
<ele>1200</ele>
<time>2014-10-02T17:55:35Z</time>
</trkpt>
<trkpt lat="42.876366" lon="-2.1000576">
<ele>1200</ele>
<time>2014-10-02T17:55:37Z</time>
</trkpt>
<trkpt lat="42.87631" lon="-2.1002247">
<ele>1203</ele>
<time>2014-10-02T17:55:39Z</time>
</trkpt>
<trkpt lat="42.87625" lon="-2.100362">
<ele>1204</ele>
<time>2014-10-02T17:55:41Z</time>
</trkpt>
<trkpt lat="42.87623" lon="-2.1004896">
<ele>1204</ele>
<time>2014-10-02T17:55:43Z</time>
</trkpt>
<trkpt lat="42.87617" lon="-2.1006305">
<ele>1204</ele>
<time>2014-10-02T17:55:44Z</time>
</trkpt>
<trkpt lat="42.876114" lon="-2.1007564">
<ele>1204</ele>
<time>2014-10-02T17:55:47Z</time>
</trkpt>
<trkpt lat="42.876083" lon="-2.1008153">
<ele>1204</ele>
<time>2014-10-02T17:55:49Z</time>
</trkpt>
<trkpt lat="42.87598" lon="-2.1009336">
<ele>1205</ele>
<time>2014-10-02T17:55:51Z</time>
</trkpt>
<trkpt lat="42.87593" lon="-2.1010625">
<ele>1208</ele>
<time>2014-10-02T17:55:53Z</time>
</trkpt>
<trkpt lat="42.87581" lon="-2.1011753">
<ele>1207</ele>
<time>2014-10-02T17:55:55Z</time>
</trkpt>
<trkpt lat="42.875687" lon="-2.1012897">
<ele>1205</ele>
<time>2014-10-02T17:55:57Z</time>
</trkpt>
<trkpt lat="42.875652" lon="-2.1014416">
<ele>1204</ele>
<time>2014-10-02T17:55:59Z</time>
</trkpt>
<trkpt lat="42.87557" lon="-2.1015701">
<ele>1204</ele>
<time>2014-10-02T17:56:00Z</time>
</trkpt>
<trkpt lat="42.87547" lon="-2.1016731">
<ele>1206</ele>
<time>2014-10-02T17:56:03Z</time>
</trkpt>
<trkpt lat="42.875435" lon="-2.10183">
<ele>1207</ele>
<time>2014-10-02T17:56:05Z</time>
</trkpt>
<trkpt lat="42.875336" lon="-2.1019745">
<ele>1207</ele>
<time>2014-10-02T17:56:06Z</time>
</trkpt>
<trkpt lat="42.87526" lon="-2.1021013">
<ele>1209</ele>
<time>2014-10-02T17:56:08Z</time>
</trkpt>
<trkpt lat="42.87507" lon="-2.1021345">
<ele>1209</ele>
<time>2014-10-02T17:56:10Z</time>
</trkpt>
<trkpt lat="42.87486" lon="-2.1021252">
<ele>1204</ele>
<time>2014-10-02T17:56:13Z</time>
</trkpt>
<trkpt lat="42.87467" lon="-2.1021452">
<ele>1204</ele>
<time>2014-10-02T17:56:15Z</time>
</trkpt>
<trkpt lat="42.87448" lon="-2.102248">
<ele>1202</ele>
<time>2014-10-02T17:56:17Z</time>
</trkpt>
<trkpt lat="42.87432" lon="-2.1023333">
<ele>1201</ele>
<time>2014-10-02T17:56:19Z</time>
</trkpt>
<trkpt lat="42.874294" lon="-2.102499">
<ele>1200</ele>
<time>2014-10-02T17:56:20Z</time>
</trkpt>
<trkpt lat="42.874622" lon="-2.1024404">
<ele>1198</ele>
<time>2014-10-02T17:56:24Z</time>
</trkpt>
<trkpt lat="42.87466" lon="-2.1024365">
<ele>1198</ele>
<time>2014-10-02T17:56:25Z</time>
</trkpt>
<trkpt lat="42.874737" lon="-2.1021984">
<ele>1198</ele>
<time>2014-10-02T17:56:27Z</time>
</trkpt>
<trkpt lat="42.87485" lon="-2.1019957">
<ele>1200</ele>
<time>2014-10-02T17:56:29Z</time>
</trkpt>
<trkpt lat="42.87493" lon="-2.1017313">
<ele>1205</ele>
<time>2014-10-02T17:56:31Z</time>
</trkpt>
<trkpt lat="42.875004" lon="-2.1015613">
<ele>1211</ele>
<time>2014-10-02T17:56:33Z</time>
</trkpt>
<trkpt lat="42.875103" lon="-2.1013482">
<ele>1213</ele>
<time>2014-10-02T17:56:35Z</time>
</trkpt>
<trkpt lat="42.87517" lon="-2.1011076">
<ele>1216</ele>
<time>2014-10-02T17:56:37Z</time>
</trkpt>
<trkpt lat="42.87528" lon="-2.1009362">
<ele>1215</ele>
<time>2014-10-02T17:56:39Z</time>
</trkpt>
<trkpt lat="42.87543" lon="-2.1008792">
<ele>1210</ele>
<time>2014-10-02T17:56:41Z</time>
</trkpt>
<trkpt lat="42.875557" lon="-2.1007392">
<ele>1210</ele>
<time>2014-10-02T17:56:42Z</time>
</trkpt>
<trkpt lat="42.875706" lon="-2.1006162">
<ele>1211</ele>
<time>2014-10-02T17:56:45Z</time>
</trkpt>
<trkpt lat="42.875847" lon="-2.1005216">
<ele>1213</ele>
<time>2014-10-02T17:56:47Z</time>
</trkpt>
<trkpt lat="42.87597" lon="-2.1004157">
<ele>1212</ele>
<time>2014-10-02T17:56:49Z</time>
</trkpt>
<trkpt lat="42.87609" lon="-2.1003783">
<ele>1210</ele>
<time>2014-10-02T17:56:51Z</time>
</trkpt>
<trkpt lat="42.876225" lon="-2.1003368">
<ele>1209</ele>
<time>2014-10-02T17:56:53Z</time>
</trkpt>
<trkpt lat="42.87634" lon="-2.100316">
<ele>1209</ele>
<time>2014-10-02T17:56:54Z</time>
</trkpt>
<trkpt lat="42.876453" lon="-2.1003296">
<ele>1209</ele>
<time>2014-10-02T17:56:57Z</time>
</trkpt>
<trkpt lat="42.876442" lon="-2.1004684">
<ele>1208</ele>
<time>2014-10-02T17:56:59Z</time>
</trkpt>
<trkpt lat="42.876427" lon="-2.1005657">
<ele>1208</ele>
<time>2014-10-02T17:57:01Z</time>
</trkpt>
<trkpt lat="42.876297" lon="-2.1007395">
<ele>1209</ele>
<time>2014-10-02T17:57:03Z</time>
</trkpt>
<trkpt lat="42.87621" lon="-2.100898">
<ele>1213</ele>
<time>2014-10-02T17:57:05Z</time>
</trkpt>
<trkpt lat="42.876133" lon="-2.1010418">
<ele>1212</ele>
<time>2014-10-02T17:57:07Z</time>
</trkpt>
<trkpt lat="42.876045" lon="-2.10113">
<ele>1210</ele>
<time>2014-10-02T17:57:09Z</time>
</trkpt>
<trkpt lat="42.87593" lon="-2.1012595">
<ele>1211</ele>
<time>2014-10-02T17:57:11Z</time>
</trkpt>
<trkpt lat="42.875816" lon="-2.1013522">
<ele>1211</ele>
<time>2014-10-02T17:57:13Z</time>
</trkpt>
<trkpt lat="42.875675" lon="-2.1014216">
<ele>1211</ele>
<time>2014-10-02T17:57:14Z</time>
</trkpt>
<trkpt lat="42.8755" lon="-2.1014645">
<ele>1211</ele>
<time>2014-10-02T17:57:17Z</time>
</trkpt>
<trkpt lat="42.875343" lon="-2.1015368">
<ele>1211</ele>
<time>2014-10-02T17:57:19Z</time>
</trkpt>
<trkpt lat="42.87519" lon="-2.1016645">
<ele>1210</ele>
<time>2014-10-02T17:57:21Z</time>
</trkpt>
<trkpt lat="42.875004" lon="-2.1017025">
<ele>1210</ele>
<time>2014-10-02T17:57:22Z</time>
</trkpt>
<trkpt lat="42.874886" lon="-2.1017697">
<ele>1210</ele>
<time>2014-10-02T17:57:25Z</time>
</trkpt>
<trkpt lat="42.874763" lon="-2.1018798">
<ele>1209</ele>
<time>2014-10-02T17:57:27Z</time>
</trkpt>
<trkpt lat="42.87464" lon="-2.101985">
<ele>1210</ele>
<time>2014-10-02T17:57:29Z</time>
</trkpt>
<trkpt lat="42.874516" lon="-2.1021252">
<ele>1207</ele>
<time>2014-10-02T17:57:31Z</time>
</trkpt>
<trkpt lat="42.87439" lon="-2.1022568">
<ele>1206</ele>
<time>2014-10-02T17:57:33Z</time>
</trkpt>
<trkpt lat="42.874275" lon="-2.102368">
<ele>1206</ele>
<time>2014-10-02T17:57:35Z</time>
</trkpt>
<trkpt lat="42.874172" lon="-2.1024864">
<ele>1206</ele>
<time>2014-10-02T17:57:37Z</time>
</trkpt>
<trkpt lat="42.874077" lon="-2.102635">
<ele>1205</ele>
<time>2014-10-02T17:57:39Z</time>
</trkpt>
<trkpt lat="42.87405" lon="-2.1027985">
<ele>1205</ele>
<time>2014-10-02T17:57:41Z</time>
</trkpt>
<trkpt lat="42.87403" lon="-2.1029334">
<ele>1204</ele>
<time>2014-10-02T17:57:43Z</time>
</trkpt>
<trkpt lat="42.874073" lon="-2.1031008">
<ele>1204</ele>
<time>2014-10-02T17:57:45Z</time>
</trkpt>
<trkpt lat="42.874077" lon="-2.1032321">
<ele>1203</ele>
<time>2014-10-02T17:57:47Z</time>
</trkpt>
<trkpt lat="42.874073" lon="-2.103324">
<ele>1202</ele>
<time>2014-10-02T17:57:49Z</time>
</trkpt>
<trkpt lat="42.874077" lon="-2.1034648">
<ele>1201</ele>
<time>2014-10-02T17:57:51Z</time>
</trkpt>
<trkpt lat="42.87408" lon="-2.1035988">
<ele>1200</ele>
<time>2014-10-02T17:57:53Z</time>
</trkpt>
<trkpt lat="42.874073" lon="-2.103659">
<ele>1198</ele>
<time>2014-10-02T17:57:55Z</time>
</trkpt>
<trkpt lat="42.874096" lon="-2.1038177">
<ele>1197</ele>
<time>2014-10-02T17:57:57Z</time>
</trkpt>
<trkpt lat="42.874157" lon="-2.1039572">
<ele>1196</ele>
<time>2014-10-02T17:57:59Z</time>
</trkpt>
<trkpt lat="42.87417" lon="-2.1042008">
<ele>1195</ele>
<time>2014-10-02T17:58:01Z</time>
</trkpt>
<trkpt lat="42.87419" lon="-2.1043952">
<ele>1196</ele>
<time>2014-10-02T17:58:03Z</time>
</trkpt>
<trkpt lat="42.874123" lon="-2.1044793">
<ele>1193</ele>
<time>2014-10-02T17:58:05Z</time>
</trkpt>
<trkpt lat="42.874058" lon="-2.1046221">
<ele>1195</ele>
<time>2014-10-02T17:58:06Z</time>
</trkpt>
<trkpt lat="42.874023" lon="-2.104776">
<ele>1194</ele>
<time>2014-10-02T17:58:09Z</time>
</trkpt>
<trkpt lat="42.87399" lon="-2.1049252">
<ele>1195</ele>
<time>2014-10-02T17:58:11Z</time>
</trkpt>
<trkpt lat="42.873913" lon="-2.1050336">
<ele>1195</ele>
<time>2014-10-02T17:58:13Z</time>
</trkpt>
<trkpt lat="42.873875" lon="-2.1051939">
<ele>1194</ele>
<time>2014-10-02T17:58:15Z</time>
</trkpt>
<trkpt lat="42.873848" lon="-2.105366">
<ele>1194</ele>
<time>2014-10-02T17:58:17Z</time>
</trkpt>
<trkpt lat="42.873833" lon="-2.1055412">
<ele>1194</ele>
<time>2014-10-02T17:58:18Z</time>
</trkpt>
<trkpt lat="42.873856" lon="-2.1056614">
<ele>1199</ele>
<time>2014-10-02T17:58:21Z</time>
</trkpt>
<trkpt lat="42.873875" lon="-2.1057992">
<ele>1198</ele>
<time>2014-10-02T17:58:23Z</time>
</trkpt>
<trkpt lat="42.87384" lon="-2.105953">
<ele>1198</ele>
<time>2014-10-02T17:58:25Z</time>
</trkpt>
<trkpt lat="42.87382" lon="-2.1060843">
<ele>1197</ele>
<time>2014-10-02T17:58:26Z</time>
</trkpt>
<trkpt lat="42.873802" lon="-2.10624">
<ele>1199</ele>
<time>2014-10-02T17:58:29Z</time>
</trkpt>
<trkpt lat="42.87375" lon="-2.1063862">
<ele>1198</ele>
<time>2014-10-02T17:58:31Z</time>
</trkpt>
<trkpt lat="42.87372" lon="-2.1064923">
<ele>1196</ele>
<time>2014-10-02T17:58:33Z</time>
</trkpt>
<trkpt lat="42.87363" lon="-2.1066487">
<ele>1197</ele>
<time>2014-10-02T17:58:35Z</time>
</trkpt>
<trkpt lat="42.873608" lon="-2.1068306">
<ele>1195</ele>
<time>2014-10-02T17:58:37Z</time>
</trkpt>
<trkpt lat="42.873558" lon="-2.1069853">
<ele>1193</ele>
<time>2014-10-02T17:58:39Z</time>
</trkpt>
<trkpt lat="42.873512" lon="-2.1071336">
<ele>1190</ele>
<time>2014-10-02T17:58:41Z</time>
</trkpt>
<trkpt lat="42.87346" lon="-2.1073055">
<ele>1190</ele>
<time>2014-10-02T17:58:43Z</time>
</trkpt>
<trkpt lat="42.87342" lon="-2.1074562">
<ele>1192</ele>
<time>2014-10-02T17:58:45Z</time>
</trkpt>
<trkpt lat="42.873367" lon="-2.107593">
<ele>1191</ele>
<time>2014-10-02T17:58:47Z</time>
</trkpt>
<trkpt lat="42.87331" lon="-2.1077602">
<ele>1190</ele>
<time>2014-10-02T17:58:49Z</time>
</trkpt>
<trkpt lat="42.873226" lon="-2.1079178">
<ele>1188</ele>
<time>2014-10-02T17:58:51Z</time>
</trkpt>
<trkpt lat="42.87317" lon="-2.10809">
<ele>1187</ele>
<time>2014-10-02T17:58:53Z</time>
</trkpt>
<trkpt lat="42.8731" lon="-2.108267">
<ele>1186</ele>
<time>2014-10-02T17:58:55Z</time>
</trkpt>
<trkpt lat="42.87305" lon="-2.1084516">
<ele>1186</ele>
<time>2014-10-02T17:58:57Z</time>
</trkpt>
<trkpt lat="42.872993" lon="-2.1086118">
<ele>1184</ele>
<time>2014-10-02T17:58:59Z</time>
</trkpt>
<trkpt lat="42.87296" lon="-2.1088166">
<ele>1184</ele>
<time>2014-10-02T17:59:01Z</time>
</trkpt>
<trkpt lat="42.872913" lon="-2.1090026">
<ele>1184</ele>
<time>2014-10-02T17:59:03Z</time>
</trkpt>
<trkpt lat="42.872894" lon="-2.1091669">
<ele>1183</ele>
<time>2014-10-02T17:59:05Z</time>
</trkpt>
<trkpt lat="42.87284" lon="-2.1093729">
<ele>1181</ele>
<time>2014-10-02T17:59:07Z</time>
</trkpt>
<trkpt lat="42.872814" lon="-2.1095448">
<ele>1178</ele>
<time>2014-10-02T17:59:09Z</time>
</trkpt>
<trkpt lat="42.872784" lon="-2.1097572">
<ele>1176</ele>
<time>2014-10-02T17:59:11Z</time>
</trkpt>
<trkpt lat="42.872746" lon="-2.109952">
<ele>1174</ele>
<time>2014-10-02T17:59:13Z</time>
</trkpt>
<trkpt lat="42.872715" lon="-2.1101263">
<ele>1175</ele>
<time>2014-10-02T17:59:15Z</time>
</trkpt>
<trkpt lat="42.872696" lon="-2.1103067">
<ele>1174</ele>
<time>2014-10-02T17:59:17Z</time>
</trkpt>
<trkpt lat="42.872677" lon="-2.1105032">
<ele>1172</ele>
<time>2014-10-02T17:59:19Z</time>
</trkpt>
<trkpt lat="42.872654" lon="-2.110709">
<ele>1171</ele>
<time>2014-10-02T17:59:20Z</time>
</trkpt>
<trkpt lat="42.872623" lon="-2.1109066">
<ele>1171</ele>
<time>2014-10-02T17:59:23Z</time>
</trkpt>
<trkpt lat="42.872578" lon="-2.111075">
<ele>1170</ele>
<time>2014-10-02T17:59:25Z</time>
</trkpt>
<trkpt lat="42.872543" lon="-2.1113038">
<ele>1170</ele>
<time>2014-10-02T17:59:27Z</time>
</trkpt>
<trkpt lat="42.872494" lon="-2.111475">
<ele>1167</ele>
<time>2014-10-02T17:59:29Z</time>
</trkpt>
<trkpt lat="42.872417" lon="-2.1116638">
<ele>1166</ele>
<time>2014-10-02T17:59:31Z</time>
</trkpt>
<trkpt lat="42.87236" lon="-2.111837">
<ele>1165</ele>
<time>2014-10-02T17:59:33Z</time>
</trkpt>
<trkpt lat="42.87228" lon="-2.1120207">
<ele>1163</ele>
<time>2014-10-02T17:59:35Z</time>
</trkpt>
<trkpt lat="42.87221" lon="-2.1121922">
<ele>1163</ele>
<time>2014-10-02T17:59:37Z</time>
</trkpt>
<trkpt lat="42.872154" lon="-2.1123939">
<ele>1161</ele>
<time>2014-10-02T17:59:39Z</time>
</trkpt>
<trkpt lat="42.87211" lon="-2.1125805">
<ele>1158</ele>
<time>2014-10-02T17:59:40Z</time>
</trkpt>
<trkpt lat="42.872063" lon="-2.1127708">
<ele>1157</ele>
<time>2014-10-02T17:59:43Z</time>
</trkpt>
<trkpt lat="42.872032" lon="-2.1129315">
<ele>1156</ele>
<time>2014-10-02T17:59:45Z</time>
</trkpt>
<trkpt lat="42.872" lon="-2.1131113">
<ele>1152</ele>
<time>2014-10-02T17:59:47Z</time>
</trkpt>
<trkpt lat="42.871964" lon="-2.1133132">
<ele>1150</ele>
<time>2014-10-02T17:59:49Z</time>
</trkpt>
<trkpt lat="42.871914" lon="-2.113512">
<ele>1148</ele>
<time>2014-10-02T17:59:51Z</time>
</trkpt>
<trkpt lat="42.871883" lon="-2.1136985">
<ele>1146</ele>
<time>2014-10-02T17:59:53Z</time>
</trkpt>
<trkpt lat="42.87187" lon="-2.1138778">
<ele>1144</ele>
<time>2014-10-02T17:59:55Z</time>
</trkpt>
<trkpt lat="42.871853" lon="-2.1140583">
<ele>1145</ele>
<time>2014-10-02T17:59:57Z</time>
</trkpt>
<trkpt lat="42.871834" lon="-2.1142251">
<ele>1144</ele>
<time>2014-10-02T17:59:59Z</time>
</trkpt>
<trkpt lat="42.87183" lon="-2.1144032">
<ele>1142</ele>
<time>2014-10-02T18:00:00Z</time>
</trkpt>
<trkpt lat="42.871822" lon="-2.114566">
<ele>1142</ele>
<time>2014-10-02T18:00:03Z</time>
</trkpt>
<trkpt lat="42.87182" lon="-2.1147177">
<ele>1141</ele>
<time>2014-10-02T18:00:05Z</time>
</trkpt>
<trkpt lat="42.87183" lon="-2.1148639">
<ele>1140</ele>
<time>2014-10-02T18:00:06Z</time>
</trkpt>
<trkpt lat="42.871853" lon="-2.1150696">
<ele>1139</ele>
<time>2014-10-02T18:00:09Z</time>
</trkpt>
<trkpt lat="42.871845" lon="-2.1152449">
<ele>1139</ele>
<time>2014-10-02T18:00:11Z</time>
</trkpt>
<trkpt lat="42.871864" lon="-2.1153762">
<ele>1137</ele>
<time>2014-10-02T18:00:13Z</time>
</trkpt>
<trkpt lat="42.8719" lon="-2.115523">
<ele>1134</ele>
<time>2014-10-02T18:00:15Z</time>
</trkpt>
<trkpt lat="42.87192" lon="-2.1156635">
<ele>1132</ele>
<time>2014-10-02T18:00:17Z</time>
</trkpt>
<trkpt lat="42.871964" lon="-2.1158097">
<ele>1132</ele>
<time>2014-10-02T18:00:19Z</time>
</trkpt>
<trkpt lat="42.871986" lon="-2.1159632">
<ele>1129</ele>
<time>2014-10-02T18:00:21Z</time>
</trkpt>
<trkpt lat="42.87203" lon="-2.1161537">
<ele>1128</ele>
<time>2014-10-02T18:00:23Z</time>
</trkpt>
<trkpt lat="42.872055" lon="-2.1163309">
<ele>1126</ele>
<time>2014-10-02T18:00:25Z</time>
</trkpt>
<trkpt lat="42.872097" lon="-2.116467">
<ele>1125</ele>
<time>2014-10-02T18:00:27Z</time>
</trkpt>
<trkpt lat="42.87217" lon="-2.1165755">
<ele>1124</ele>
<time>2014-10-02T18:00:29Z</time>
</trkpt>
<trkpt lat="42.87223" lon="-2.116688">
<ele>1124</ele>
<time>2014-10-02T18:00:31Z</time>
</trkpt>
<trkpt lat="42.872288" lon="-2.1167934">
<ele>1122</ele>
<time>2014-10-02T18:00:33Z</time>
</trkpt>
<trkpt lat="42.872303" lon="-2.1169243">
<ele>1120</ele>
<time>2014-10-02T18:00:35Z</time>
</trkpt>
<trkpt lat="42.872314" lon="-2.1170886">
<ele>1120</ele>
<time>2014-10-02T18:00:37Z</time>
</trkpt>
<trkpt lat="42.87238" lon="-2.1172981">
<ele>1120</ele>
<time>2014-10-02T18:00:39Z</time>
</trkpt>
<trkpt lat="42.87243" lon="-2.1174564">
<ele>1119</ele>
<time>2014-10-02T18:00:41Z</time>
</trkpt>
<trkpt lat="42.87244" lon="-2.1176558">
<ele>1115</ele>
<time>2014-10-02T18:00:43Z</time>
</trkpt>
<trkpt lat="42.872524" lon="-2.117868">
<ele>1113</ele>
<time>2014-10-02T18:00:45Z</time>
</trkpt>
<trkpt lat="42.87254" lon="-2.1180801">
<ele>1111</ele>
<time>2014-10-02T18:00:47Z</time>
</trkpt>
<trkpt lat="42.87257" lon="-2.1182845">
<ele>1111</ele>
<time>2014-10-02T18:00:49Z</time>
</trkpt>
<trkpt lat="42.872612" lon="-2.118466">
<ele>1111</ele>
<time>2014-10-02T18:00:51Z</time>
</trkpt>
<trkpt lat="42.872635" lon="-2.1186743">
<ele>1110</ele>
<time>2014-10-02T18:00:53Z</time>
</trkpt>
<trkpt lat="42.872658" lon="-2.1188905">
<ele>1110</ele>
<time>2014-10-02T18:00:54Z</time>
</trkpt>
<trkpt lat="42.87273" lon="-2.1190424">
<ele>1105</ele>
<time>2014-10-02T18:00:57Z</time>
</trkpt>
<trkpt lat="42.87279" lon="-2.1191885">
<ele>1104</ele>
<time>2014-10-02T18:00:59Z</time>
</trkpt>
<trkpt lat="42.872852" lon="-2.1193137">
<ele>1104</ele>
<time>2014-10-02T18:01:01Z</time>
</trkpt>
<trkpt lat="42.872917" lon="-2.119449">
<ele>1104</ele>
<time>2014-10-02T18:01:03Z</time>
</trkpt>
<trkpt lat="42.872982" lon="-2.119589">
<ele>1102</ele>
<time>2014-10-02T18:01:04Z</time>
</trkpt>
<trkpt lat="42.87303" lon="-2.1197386">
<ele>1100</ele>
<time>2014-10-02T18:01:07Z</time>
</trkpt>
<trkpt lat="42.87309" lon="-2.1198862">
<ele>1100</ele>
<time>2014-10-02T18:01:09Z</time>
</trkpt>
<trkpt lat="42.873154" lon="-2.120021">
<ele>1099</ele>
<time>2014-10-02T18:01:11Z</time>
</trkpt>
<trkpt lat="42.873264" lon="-2.120207">
<ele>1099</ele>
<time>2014-10-02T18:01:13Z</time>
</trkpt>
<trkpt lat="42.87335" lon="-2.1203597">
<ele>1099</ele>
<time>2014-10-02T18:01:15Z</time>
</trkpt>
<trkpt lat="42.87342" lon="-2.1205115">
<ele>1099</ele>
<time>2014-10-02T18:01:17Z</time>
</trkpt>
<trkpt lat="42.87348" lon="-2.1206496">
<ele>1096</ele>
<time>2014-10-02T18:01:19Z</time>
</trkpt>
<trkpt lat="42.87348" lon="-2.1207817">
<ele>1094</ele>
<time>2014-10-02T18:01:21Z</time>
</trkpt>
<trkpt lat="42.87353" lon="-2.120907">
<ele>1092</ele>
<time>2014-10-02T18:01:23Z</time>
</trkpt>
<trkpt lat="42.873566" lon="-2.1210482">
<ele>1093</ele>
<time>2014-10-02T18:01:25Z</time>
</trkpt>
<trkpt lat="42.87361" lon="-2.1211646">
<ele>1092</ele>
<time>2014-10-02T18:01:26Z</time>
</trkpt>
<trkpt lat="42.873653" lon="-2.1213024">
<ele>1091</ele>
<time>2014-10-02T18:01:28Z</time>
</trkpt>
<trkpt lat="42.873684" lon="-2.121486">
<ele>1088</ele>
<time>2014-10-02T18:01:31Z</time>
</trkpt>
<trkpt lat="42.873688" lon="-2.1216142">
<ele>1084</ele>
<time>2014-10-02T18:01:33Z</time>
</trkpt>
<trkpt lat="42.87371" lon="-2.1217895">
<ele>1081</ele>
<time>2014-10-02T18:01:35Z</time>
</trkpt>
<trkpt lat="42.87374" lon="-2.121951">
<ele>1080</ele>
<time>2014-10-02T18:01:37Z</time>
</trkpt>
<trkpt lat="42.87376" lon="-2.1220794">
<ele>1077</ele>
<time>2014-10-02T18:01:39Z</time>
</trkpt>
<trkpt lat="42.873768" lon="-2.1221786">
<ele>1076</ele>
<time>2014-10-02T18:01:41Z</time>
</trkpt>
<trkpt lat="42.873837" lon="-2.122326">
<ele>1074</ele>
<time>2014-10-02T18:01:43Z</time>
</trkpt>
<trkpt lat="42.873875" lon="-2.1224587">
<ele>1073</ele>
<time>2014-10-02T18:01:45Z</time>
</trkpt>
<trkpt lat="42.873905" lon="-2.1226146">
<ele>1072</ele>
<time>2014-10-02T18:01:47Z</time>
</trkpt>
<trkpt lat="42.873966" lon="-2.1227577">
<ele>1071</ele>
<time>2014-10-02T18:01:48Z</time>
</trkpt>
<trkpt lat="42.874027" lon="-2.1229005">
<ele>1069</ele>
<time>2014-10-02T18:01:51Z</time>
</trkpt>
<trkpt lat="42.87406" lon="-2.1230743">
<ele>1064</ele>
<time>2014-10-02T18:01:53Z</time>
</trkpt>
<trkpt lat="42.874096" lon="-2.1232572">
<ele>1066</ele>
<time>2014-10-02T18:01:54Z</time>
</trkpt>
<trkpt lat="42.874104" lon="-2.1234555">
<ele>1064</ele>
<time>2014-10-02T18:01:57Z</time>
</trkpt>
<trkpt lat="42.874107" lon="-2.1236415">
<ele>1064</ele>
<time>2014-10-02T18:01:59Z</time>
</trkpt>
<trkpt lat="42.8741" lon="-2.123814">
<ele>1064</ele>
<time>2014-10-02T18:02:01Z</time>
</trkpt>
<trkpt lat="42.874073" lon="-2.1240065">
<ele>1063</ele>
<time>2014-10-02T18:02:02Z</time>
</trkpt>
<trkpt lat="42.87411" lon="-2.1240904">
<ele>1059</ele>
<time>2014-10-02T18:02:04Z</time>
</trkpt>
<trkpt lat="42.874138" lon="-2.1242414">
<ele>1056</ele>
<time>2014-10-02T18:02:06Z</time>
</trkpt>
<trkpt lat="42.874203" lon="-2.1244853">
<ele>1058</ele>
<time>2014-10-02T18:02:09Z</time>
</trkpt>
<trkpt lat="42.87421" lon="-2.124679">
<ele>1059</ele>
<time>2014-10-02T18:02:11Z</time>
</trkpt>
<trkpt lat="42.874207" lon="-2.1248426">
<ele>1059</ele>
<time>2014-10-02T18:02:13Z</time>
</trkpt>
<trkpt lat="42.874237" lon="-2.1249373">
<ele>1057</ele>
<time>2014-10-02T18:02:15Z</time>
</trkpt>
<trkpt lat="42.87425" lon="-2.1251311">
<ele>1057</ele>
<time>2014-10-02T18:02:16Z</time>
</trkpt>
<trkpt lat="42.874294" lon="-2.1252487">
<ele>1057</ele>
<time>2014-10-02T18:02:19Z</time>
</trkpt>
<trkpt lat="42.874348" lon="-2.1254313">
<ele>1058</ele>
<time>2014-10-02T18:02:21Z</time>
</trkpt>
<trkpt lat="42.874363" lon="-2.1255925">
<ele>1056</ele>
<time>2014-10-02T18:02:23Z</time>
</trkpt>
<trkpt lat="42.874317" lon="-2.125761">
<ele>1051</ele>
<time>2014-10-02T18:02:24Z</time>
</trkpt>
<trkpt lat="42.874325" lon="-2.1259897">
<ele>1051</ele>
<time>2014-10-02T18:02:27Z</time>
</trkpt>
<trkpt lat="42.87432" lon="-2.1261702">
<ele>1052</ele>
<time>2014-10-02T18:02:29Z</time>
</trkpt>
<trkpt lat="42.8743" lon="-2.1263638">
<ele>1052</ele>
<time>2014-10-02T18:02:31Z</time>
</trkpt>
<trkpt lat="42.874283" lon="-2.1265547">
<ele>1052</ele>
<time>2014-10-02T18:02:33Z</time>
</trkpt>
<trkpt lat="42.87425" lon="-2.126748">
<ele>1051</ele>
<time>2014-10-02T18:02:35Z</time>
</trkpt>
<trkpt lat="42.874203" lon="-2.1269505">
<ele>1051</ele>
<time>2014-10-02T18:02:37Z</time>
</trkpt>
<trkpt lat="42.874195" lon="-2.127117">
<ele>1050</ele>
<time>2014-10-02T18:02:39Z</time>
</trkpt>
<trkpt lat="42.874176" lon="-2.1273472">
<ele>1049</ele>
<time>2014-10-02T18:02:41Z</time>
</trkpt>
<trkpt lat="42.8741" lon="-2.1275148">
<ele>1049</ele>
<time>2014-10-02T18:02:42Z</time>
</trkpt>
<trkpt lat="42.873993" lon="-2.1277368">
<ele>1047</ele>
<time>2014-10-02T18:02:45Z</time>
</trkpt>
<trkpt lat="42.873947" lon="-2.1278684">
<ele>1045</ele>
<time>2014-10-02T18:02:47Z</time>
</trkpt>
<trkpt lat="42.8739" lon="-2.1280725">
<ele>1044</ele>
<time>2014-10-02T18:02:49Z</time>
</trkpt>
<trkpt lat="42.873966" lon="-2.1282659">
<ele>1044</ele>
<time>2014-10-02T18:02:50Z</time>
</trkpt>
<trkpt lat="42.874" lon="-2.1285465">
<ele>1043</ele>
<time>2014-10-02T18:02:53Z</time>
</trkpt>
<trkpt lat="42.874035" lon="-2.1287863">
<ele>1043</ele>
<time>2014-10-02T18:02:55Z</time>
</trkpt>
<trkpt lat="42.874092" lon="-2.1290026">
<ele>1043</ele>
<time>2014-10-02T18:02:57Z</time>
</trkpt>
<trkpt lat="42.874157" lon="-2.1290557">
<ele>1037</ele>
<time>2014-10-02T18:02:58Z</time>
</trkpt>
<trkpt lat="42.87422" lon="-2.1292977">
<ele>1040</ele>
<time>2014-10-02T18:03:01Z</time>
</trkpt>
<trkpt lat="42.874245" lon="-2.1295328">
<ele>1040</ele>
<time>2014-10-02T18:03:03Z</time>
</trkpt>
<trkpt lat="42.874264" lon="-2.1297388">
<ele>1040</ele>
<time>2014-10-02T18:03:05Z</time>
</trkpt>
<trkpt lat="42.87427" lon="-2.1299918">
<ele>1040</ele>
<time>2014-10-02T18:03:07Z</time>
</trkpt>
<trkpt lat="42.8743" lon="-2.130138">
<ele>1040</ele>
<time>2014-10-02T18:03:09Z</time>
</trkpt>
<trkpt lat="42.87432" lon="-2.1302693">
<ele>1040</ele>
<time>2014-10-02T18:03:11Z</time>
</trkpt>
<trkpt lat="42.874355" lon="-2.130461">
<ele>1043</ele>
<time>2014-10-02T18:03:13Z</time>
</trkpt>
<trkpt lat="42.874424" lon="-2.1305768">
<ele>1045</ele>
<time>2014-10-02T18:03:15Z</time>
</trkpt>
<trkpt lat="42.87443" lon="-2.1306808">
<ele>1047</ele>
<time>2014-10-02T18:03:17Z</time>
</trkpt>
<trkpt lat="42.87442" lon="-2.1308596">
<ele>1048</ele>
<time>2014-10-02T18:03:19Z</time>
</trkpt>
<trkpt lat="42.874435" lon="-2.131056">
<ele>1049</ele>
<time>2014-10-02T18:03:21Z</time>
</trkpt>
<trkpt lat="42.874443" lon="-2.1312509">
<ele>1046</ele>
<time>2014-10-02T18:03:23Z</time>
</trkpt>
<trkpt lat="42.874466" lon="-2.1314306">
<ele>1049</ele>
<time>2014-10-02T18:03:25Z</time>
</trkpt>
<trkpt lat="42.874447" lon="-2.13159">
<ele>1052</ele>
<time>2014-10-02T18:03:27Z</time>
</trkpt>
<trkpt lat="42.874447" lon="-2.1317415">
<ele>1052</ele>
<time>2014-10-02T18:03:29Z</time>
</trkpt>
<trkpt lat="42.8744" lon="-2.1318872">
<ele>1048</ele>
<time>2014-10-02T18:03:31Z</time>
</trkpt>
<trkpt lat="42.874363" lon="-2.132036">
<ele>1045</ele>
<time>2014-10-02T18:03:33Z</time>
</trkpt>
<trkpt lat="42.874477" lon="-2.132302">
<ele>1045</ele>
<time>2014-10-02T18:03:36Z</time>
</trkpt>
<trkpt lat="42.87458" lon="-2.132414">
<ele>1044</ele>
<time>2014-10-02T18:03:38Z</time>
</trkpt>
<trkpt lat="42.874622" lon="-2.132502">
<ele>1043</ele>
<time>2014-10-02T18:03:40Z</time>
</trkpt>
<trkpt lat="42.874664" lon="-2.1326451">
<ele>1040</ele>
<time>2014-10-02T18:03:42Z</time>
</trkpt>
<trkpt lat="42.87469" lon="-2.1327891">
<ele>1036</ele>
<time>2014-10-02T18:03:44Z</time>
</trkpt>
<trkpt lat="42.874687" lon="-2.1329606">
<ele>1034</ele>
<time>2014-10-02T18:03:46Z</time>
</trkpt>
<trkpt lat="42.87472" lon="-2.13314">
<ele>1034</ele>
<time>2014-10-02T18:03:48Z</time>
</trkpt>
<trkpt lat="42.874756" lon="-2.1333337">
<ele>1034</ele>
<time>2014-10-02T18:03:49Z</time>
</trkpt>
<trkpt lat="42.874813" lon="-2.1335495">
<ele>1034</ele>
<time>2014-10-02T18:03:52Z</time>
</trkpt>
<trkpt lat="42.874866" lon="-2.13363">
<ele>1032</ele>
<time>2014-10-02T18:03:54Z</time>
</trkpt>
<trkpt lat="42.874916" lon="-2.1337898">
<ele>1031</ele>
<time>2014-10-02T18:03:56Z</time>
</trkpt>
<trkpt lat="42.87496" lon="-2.1339464">
<ele>1028</ele>
<time>2014-10-02T18:03:58Z</time>
</trkpt>
<trkpt lat="42.874973" lon="-2.1341655">
<ele>1026</ele>
<time>2014-10-02T18:04:00Z</time>
</trkpt>
<trkpt lat="42.875004" lon="-2.1343462">
<ele>1028</ele>
<time>2014-10-02T18:04:02Z</time>
</trkpt>
<trkpt lat="42.87503" lon="-2.1344526">
<ele>1030</ele>
<time>2014-10-02T18:04:04Z</time>
</trkpt>
<trkpt lat="42.875065" lon="-2.1346087">
<ele>1029</ele>
<time>2014-10-02T18:04:06Z</time>
</trkpt>
<trkpt lat="42.875126" lon="-2.1347814">
<ele>1028</ele>
<time>2014-10-02T18:04:08Z</time>
</trkpt>
<trkpt lat="42.87516" lon="-2.1349523">
<ele>1026</ele>
<time>2014-10-02T18:04:10Z</time>
</trkpt>
<trkpt lat="42.87517" lon="-2.135127">
<ele>1029</ele>
<time>2014-10-02T18:04:12Z</time>
</trkpt>
<trkpt lat="42.875237" lon="-2.1352768">
<ele>1028</ele>
<time>2014-10-02T18:04:14Z</time>
</trkpt>
<trkpt lat="42.875237" lon="-2.135433">
<ele>1025</ele>
<time>2014-10-02T18:04:16Z</time>
</trkpt>
<trkpt lat="42.87528" lon="-2.1355872">
<ele>1022</ele>
<time>2014-10-02T18:04:17Z</time>
</trkpt>
<trkpt lat="42.875393" lon="-2.135764">
<ele>1023</ele>
<time>2014-10-02T18:04:20Z</time>
</trkpt>
<trkpt lat="42.8754" lon="-2.1359527">
<ele>1022</ele>
<time>2014-10-02T18:04:22Z</time>
</trkpt>
<trkpt lat="42.87544" lon="-2.1360774">
<ele>1021</ele>
<time>2014-10-02T18:04:24Z</time>
</trkpt>
<trkpt lat="42.875465" lon="-2.1362274">
<ele>1020</ele>
<time>2014-10-02T18:04:26Z</time>
</trkpt>
<trkpt lat="42.87548" lon="-2.1364057">
<ele>1020</ele>
<time>2014-10-02T18:04:28Z</time>
</trkpt>
<trkpt lat="42.875454" lon="-2.136543">
<ele>1023</ele>
<time>2014-10-02T18:04:30Z</time>
</trkpt>
<trkpt lat="42.87545" lon="-2.1366885">
<ele>1020</ele>
<time>2014-10-02T18:04:32Z</time>
</trkpt>
<trkpt lat="42.875465" lon="-2.136876">
<ele>1015</ele>
<time>2014-10-02T18:04:33Z</time>
</trkpt>
<trkpt lat="42.87553" lon="-2.1370306">
<ele>1014</ele>
<time>2014-10-02T18:04:36Z</time>
</trkpt>
<trkpt lat="42.875565" lon="-2.137181">
<ele>1011</ele>
<time>2014-10-02T18:04:38Z</time>
</trkpt>
<trkpt lat="42.875576" lon="-2.1373184">
<ele>1006</ele>
<time>2014-10-02T18:04:40Z</time>
</trkpt>
<trkpt lat="42.87561" lon="-2.1374495">
<ele>1007</ele>
<time>2014-10-02T18:04:42Z</time>
</trkpt>
<trkpt lat="42.875664" lon="-2.1376226">
<ele>1007</ele>
<time>2014-10-02T18:04:44Z</time>
</trkpt>
<trkpt lat="42.87567" lon="-2.137762">
<ele>1007</ele>
<time>2014-10-02T18:04:46Z</time>
</trkpt>
<trkpt lat="42.87567" lon="-2.1379187">
<ele>1005</ele>
<time>2014-10-02T18:04:48Z</time>
</trkpt>
<trkpt lat="42.875645" lon="-2.1381223">
<ele>1000</ele>
<time>2014-10-02T18:04:50Z</time>
</trkpt>
<trkpt lat="42.875637" lon="-2.138317">
<ele>998</ele>
<time>2014-10-02T18:04:52Z</time>
</trkpt>
<trkpt lat="42.875645" lon="-2.138491">
<ele>998</ele>
<time>2014-10-02T18:04:54Z</time>
</trkpt>
<trkpt lat="42.87564" lon="-2.1386669">
<ele>995</ele>
<time>2014-10-02T18:04:56Z</time>
</trkpt>
<trkpt lat="42.875626" lon="-2.1389012">
<ele>994</ele>
<time>2014-10-02T18:04:58Z</time>
</trkpt>
<trkpt lat="42.87559" lon="-2.139092">
<ele>994</ele>
<time>2014-10-02T18:05:00Z</time>
</trkpt>
<trkpt lat="42.875534" lon="-2.139282">
<ele>995</ele>
<time>2014-10-02T18:05:01Z</time>
</trkpt>
<trkpt lat="42.8755" lon="-2.139477">
<ele>994</ele>
<time>2014-10-02T18:05:04Z</time>
</trkpt>
<trkpt lat="42.875504" lon="-2.139681">
<ele>994</ele>
<time>2014-10-02T18:05:06Z</time>
</trkpt>
<trkpt lat="42.87548" lon="-2.139829">
<ele>991</ele>
<time>2014-10-02T18:05:08Z</time>
</trkpt>
<trkpt lat="42.875473" lon="-2.1400607">
<ele>989</ele>
<time>2014-10-02T18:05:10Z</time>
</trkpt>
<trkpt lat="42.87548" lon="-2.1402602">
<ele>988</ele>
<time>2014-10-02T18:05:12Z</time>
</trkpt>
<trkpt lat="42.875465" lon="-2.1404824">
<ele>988</ele>
<time>2014-10-02T18:05:14Z</time>
</trkpt>
<trkpt lat="42.87547" lon="-2.140687">
<ele>987</ele>
<time>2014-10-02T18:05:15Z</time>
</trkpt>
<trkpt lat="42.875484" lon="-2.1409264">
<ele>985</ele>
<time>2014-10-02T18:05:18Z</time>
</trkpt>
<trkpt lat="42.875496" lon="-2.141149">
<ele>985</ele>
<time>2014-10-02T18:05:20Z</time>
</trkpt>
<trkpt lat="42.87553" lon="-2.1413217">
<ele>984</ele>
<time>2014-10-02T18:05:22Z</time>
</trkpt>
<trkpt lat="42.875565" lon="-2.141506">
<ele>985</ele>
<time>2014-10-02T18:05:24Z</time>
</trkpt>
<trkpt lat="42.87554" lon="-2.141778">
<ele>985</ele>
<time>2014-10-02T18:05:26Z</time>
</trkpt>
<trkpt lat="42.87556" lon="-2.141989">
<ele>983</ele>
<time>2014-10-02T18:05:28Z</time>
</trkpt>
<trkpt lat="42.87559" lon="-2.142178">
<ele>982</ele>
<time>2014-10-02T18:05:30Z</time>
</trkpt>
<trkpt lat="42.875557" lon="-2.1423798">
<ele>976</ele>
<time>2014-10-02T18:05:32Z</time>
</trkpt>
<trkpt lat="42.87553" lon="-2.1426363">
<ele>974</ele>
<time>2014-10-02T18:05:34Z</time>
</trkpt>
<trkpt lat="42.87551" lon="-2.1428916">
<ele>975</ele>
<time>2014-10-02T18:05:36Z</time>
</trkpt>
<trkpt lat="42.875484" lon="-2.1431086">
<ele>973</ele>
<time>2014-10-02T18:05:38Z</time>
</trkpt>
<trkpt lat="42.875454" lon="-2.143335">
<ele>972</ele>
<time>2014-10-02T18:05:40Z</time>
</trkpt>
<trkpt lat="42.87544" lon="-2.143566">
<ele>970</ele>
<time>2014-10-02T18:05:42Z</time>
</trkpt>
<trkpt lat="42.875507" lon="-2.1438153">
<ele>969</ele>
<time>2014-10-02T18:05:44Z</time>
</trkpt>
<trkpt lat="42.875614" lon="-2.143999">
<ele>970</ele>
<time>2014-10-02T18:05:46Z</time>
</trkpt>
<trkpt lat="42.87564" lon="-2.1442144">
<ele>971</ele>
<time>2014-10-02T18:05:48Z</time>
</trkpt>
<trkpt lat="42.87562" lon="-2.1444075">
<ele>967</ele>
<time>2014-10-02T18:05:49Z</time>
</trkpt>
<trkpt lat="42.87574" lon="-2.1447365">
<ele>968</ele>
<time>2014-10-02T18:05:53Z</time>
</trkpt>
<trkpt lat="42.875793" lon="-2.1448247">
<ele>970</ele>
<time>2014-10-02T18:05:54Z</time>
</trkpt>
<trkpt lat="42.875828" lon="-2.1450002">
<ele>970</ele>
<time>2014-10-02T18:05:56Z</time>
</trkpt>
<trkpt lat="42.875854" lon="-2.1451828">
<ele>969</ele>
<time>2014-10-02T18:05:57Z</time>
</trkpt>
<trkpt lat="42.875942" lon="-2.1454496">
<ele>966</ele>
<time>2014-10-02T18:06:00Z</time>
</trkpt>
<trkpt lat="42.875996" lon="-2.1456864">
<ele>967</ele>
<time>2014-10-02T18:06:02Z</time>
</trkpt>
<trkpt lat="42.876007" lon="-2.145822">
<ele>965</ele>
<time>2014-10-02T18:06:04Z</time>
</trkpt>
<trkpt lat="42.875973" lon="-2.1460369">
<ele>961</ele>
<time>2014-10-02T18:06:06Z</time>
</trkpt>
<trkpt lat="42.87596" lon="-2.1462612">
<ele>958</ele>
<time>2014-10-02T18:06:08Z</time>
</trkpt>
<trkpt lat="42.875977" lon="-2.1464546">
<ele>955</ele>
<time>2014-10-02T18:06:10Z</time>
</trkpt>
<trkpt lat="42.875965" lon="-2.1466777">
<ele>952</ele>
<time>2014-10-02T18:06:12Z</time>
</trkpt>
<trkpt lat="42.87596" lon="-2.1468987">
<ele>950</ele>
<time>2014-10-02T18:06:14Z</time>
</trkpt>
<trkpt lat="42.876" lon="-2.1471112">
<ele>949</ele>
<time>2014-10-02T18:06:16Z</time>
</trkpt>
<trkpt lat="42.876045" lon="-2.1472914">
<ele>947</ele>
<time>2014-10-02T18:06:18Z</time>
</trkpt>
<trkpt lat="42.87606" lon="-2.1475596">
<ele>947</ele>
<time>2014-10-02T18:06:20Z</time>
</trkpt>
<trkpt lat="42.87601" lon="-2.1477172">
<ele>946</ele>
<time>2014-10-02T18:06:22Z</time>
</trkpt>
<trkpt lat="42.875977" lon="-2.1479275">
<ele>943</ele>
<time>2014-10-02T18:06:24Z</time>
</trkpt>
<trkpt lat="42.875923" lon="-2.1481924">
<ele>943</ele>
<time>2014-10-02T18:06:26Z</time>
</trkpt>
<trkpt lat="42.8759" lon="-2.1484327">
<ele>942</ele>
<time>2014-10-02T18:06:27Z</time>
</trkpt>
<trkpt lat="42.87595" lon="-2.148618">
<ele>938</ele>
<time>2014-10-02T18:06:30Z</time>
</trkpt>
<trkpt lat="42.875984" lon="-2.148828">
<ele>936</ele>
<time>2014-10-02T18:06:32Z</time>
</trkpt>
<trkpt lat="42.87607" lon="-2.149045">
<ele>935</ele>
<time>2014-10-02T18:06:34Z</time>
</trkpt>
<trkpt lat="42.876118" lon="-2.1492686">
<ele>934</ele>
<time>2014-10-02T18:06:36Z</time>
</trkpt>
<trkpt lat="42.87618" lon="-2.1495016">
<ele>934</ele>
<time>2014-10-02T18:06:38Z</time>
</trkpt>
<trkpt lat="42.876244" lon="-2.1497428">
<ele>933</ele>
<time>2014-10-02T18:06:40Z</time>
</trkpt>
<trkpt lat="42.876266" lon="-2.1499627">
<ele>929</ele>
<time>2014-10-02T18:06:42Z</time>
</trkpt>
<trkpt lat="42.876255" lon="-2.1502063">
<ele>924</ele>
<time>2014-10-02T18:06:43Z</time>
</trkpt>
<trkpt lat="42.876305" lon="-2.150485">
<ele>926</ele>
<time>2014-10-02T18:06:46Z</time>
</trkpt>
<trkpt lat="42.876312" lon="-2.150707">
<ele>925</ele>
<time>2014-10-02T18:06:48Z</time>
</trkpt>
<trkpt lat="42.87631" lon="-2.1509252">
<ele>924</ele>
<time>2014-10-02T18:06:50Z</time>
</trkpt>
<trkpt lat="42.876305" lon="-2.151179">
<ele>923</ele>
<time>2014-10-02T18:06:51Z</time>
</trkpt>
<trkpt lat="42.87631" lon="-2.1513968">
<ele>921</ele>
<time>2014-10-02T18:06:54Z</time>
</trkpt>
<trkpt lat="42.876305" lon="-2.1516094">
<ele>918</ele>
<time>2014-10-02T18:06:56Z</time>
</trkpt>
<trkpt lat="42.876316" lon="-2.151862">
<ele>916</ele>
<time>2014-10-02T18:06:57Z</time>
</trkpt>
<trkpt lat="42.876354" lon="-2.152094">
<ele>916</ele>
<time>2014-10-02T18:07:00Z</time>
</trkpt>
<trkpt lat="42.876404" lon="-2.1523397">
<ele>913</ele>
<time>2014-10-02T18:07:02Z</time>
</trkpt>
<trkpt lat="42.87645" lon="-2.1525502">
<ele>912</ele>
<time>2014-10-02T18:07:04Z</time>
</trkpt>
<trkpt lat="42.876606" lon="-2.1527288">
<ele>908</ele>
<time>2014-10-02T18:07:06Z</time>
</trkpt>
<trkpt lat="42.876663" lon="-2.152952">
<ele>906</ele>
<time>2014-10-02T18:07:08Z</time>
</trkpt>
<trkpt lat="42.876698" lon="-2.153153">
<ele>906</ele>
<time>2014-10-02T18:07:10Z</time>
</trkpt>
<trkpt lat="42.876762" lon="-2.1533933">
<ele>904</ele>
<time>2014-10-02T18:07:12Z</time>
</trkpt>
<trkpt lat="42.876835" lon="-2.1535764">
<ele>903</ele>
<time>2014-10-02T18:07:14Z</time>
</trkpt>
<trkpt lat="42.876926" lon="-2.1538208">
<ele>903</ele>
<time>2014-10-02T18:07:16Z</time>
</trkpt>
<trkpt lat="42.877" lon="-2.1539993">
<ele>902</ele>
<time>2014-10-02T18:07:17Z</time>
</trkpt>
<trkpt lat="42.877144" lon="-2.154104">
<ele>902</ele>
<time>2014-10-02T18:07:20Z</time>
</trkpt>
<trkpt lat="42.877316" lon="-2.154066">
<ele>900</ele>
<time>2014-10-02T18:07:22Z</time>
</trkpt>
<trkpt lat="42.87752" lon="-2.1539822">
<ele>900</ele>
<time>2014-10-02T18:07:24Z</time>
</trkpt>
<trkpt lat="42.877693" lon="-2.1539319">
<ele>899</ele>
<time>2014-10-02T18:07:26Z</time>
</trkpt>
<trkpt lat="42.8777" lon="-2.1536653">
<ele>898</ele>
<time>2014-10-02T18:07:28Z</time>
</trkpt>
<trkpt lat="42.877804" lon="-2.1535158">
<ele>898</ele>
<time>2014-10-02T18:07:30Z</time>
</trkpt>
<trkpt lat="42.877834" lon="-2.1532974">
<ele>897</ele>
<time>2014-10-02T18:07:31Z</time>
</trkpt>
<trkpt lat="42.877823" lon="-2.1530952">
<ele>897</ele>
<time>2014-10-02T18:07:34Z</time>
</trkpt>
<trkpt lat="42.87795" lon="-2.1527324">
<ele>895</ele>
<time>2014-10-02T18:07:36Z</time>
</trkpt>
<trkpt lat="42.878075" lon="-2.1525292">
<ele>896</ele>
<time>2014-10-02T18:07:38Z</time>
</trkpt>
<trkpt lat="42.878094" lon="-2.1522455">
<ele>894</ele>
<time>2014-10-02T18:07:40Z</time>
</trkpt>
<trkpt lat="42.878174" lon="-2.1519454">
<ele>892</ele>
<time>2014-10-02T18:07:42Z</time>
</trkpt>
<trkpt lat="42.878265" lon="-2.1517067">
<ele>892</ele>
<time>2014-10-02T18:07:44Z</time>
</trkpt>
<trkpt lat="42.878426" lon="-2.1514688">
<ele>890</ele>
<time>2014-10-02T18:07:46Z</time>
</trkpt>
<trkpt lat="42.878517" lon="-2.1511788">
<ele>889</ele>
<time>2014-10-02T18:07:48Z</time>
</trkpt>
<trkpt lat="42.878677" lon="-2.150981">
<ele>887</ele>
<time>2014-10-02T18:07:50Z</time>
</trkpt>
<trkpt lat="42.87877" lon="-2.1506755">
<ele>887</ele>
<time>2014-10-02T18:07:52Z</time>
</trkpt>
<trkpt lat="42.878765" lon="-2.150324">
<ele>886</ele>
<time>2014-10-02T18:07:54Z</time>
</trkpt>
<trkpt lat="42.878872" lon="-2.150039">
<ele>886</ele>
<time>2014-10-02T18:07:55Z</time>
</trkpt>
<trkpt lat="42.878895" lon="-2.1497526">
<ele>885</ele>
<time>2014-10-02T18:07:58Z</time>
</trkpt>
<trkpt lat="42.878803" lon="-2.149731">
<ele>874</ele>
<time>2014-10-02T18:07:59Z</time>
</trkpt>
<trkpt lat="42.878845" lon="-2.149482">
<ele>865</ele>
<time>2014-10-02T18:08:02Z</time>
</trkpt>
<trkpt lat="42.878937" lon="-2.1491606">
<ele>858</ele>
<time>2014-10-02T18:08:04Z</time>
</trkpt>
<trkpt lat="42.87903" lon="-2.1488276">
<ele>857</ele>
<time>2014-10-02T18:08:05Z</time>
</trkpt>
<trkpt lat="42.879143" lon="-2.1485913">
<ele>856</ele>
<time>2014-10-02T18:08:08Z</time>
</trkpt>
<trkpt lat="42.879257" lon="-2.148414">
<ele>855</ele>
<time>2014-10-02T18:08:09Z</time>
</trkpt>
<trkpt lat="42.879322" lon="-2.1481204">
<ele>853</ele>
<time>2014-10-02T18:08:12Z</time>
</trkpt>
<trkpt lat="42.879433" lon="-2.1478734">
<ele>852</ele>
<time>2014-10-02T18:08:14Z</time>
</trkpt>
<trkpt lat="42.879547" lon="-2.1476524">
<ele>853</ele>
<time>2014-10-02T18:08:16Z</time>
</trkpt>
<trkpt lat="42.87975" lon="-2.1473749">
<ele>847</ele>
<time>2014-10-02T18:08:19Z</time>
</trkpt>
<trkpt lat="42.87977" lon="-2.147105">
<ele>839</ele>
<time>2014-10-02T18:08:21Z</time>
</trkpt>
<trkpt lat="42.879852" lon="-2.146841">
<ele>834</ele>
<time>2014-10-02T18:08:23Z</time>
</trkpt>
<trkpt lat="42.87995" lon="-2.14658">
<ele>832</ele>
<time>2014-10-02T18:08:25Z</time>
</trkpt>
<trkpt lat="42.88014" lon="-2.1464117">
<ele>828</ele>
<time>2014-10-02T18:08:27Z</time>
</trkpt>
<trkpt lat="42.88029" lon="-2.146283">
<ele>827</ele>
<time>2014-10-02T18:08:29Z</time>
</trkpt>
<trkpt lat="42.880466" lon="-2.1461384">
<ele>826</ele>
<time>2014-10-02T18:08:30Z</time>
</trkpt>
<trkpt lat="42.88063" lon="-2.1460004">
<ele>824</ele>
<time>2014-10-02T18:08:33Z</time>
</trkpt>
<trkpt lat="42.88078" lon="-2.1457973">
<ele>822</ele>
<time>2014-10-02T18:08:35Z</time>
</trkpt>
<trkpt lat="42.880936" lon="-2.1455665">
<ele>819</ele>
<time>2014-10-02T18:08:37Z</time>
</trkpt>
<trkpt lat="42.88109" lon="-2.145402">
<ele>819</ele>
<time>2014-10-02T18:08:39Z</time>
</trkpt>
<trkpt lat="42.881107" lon="-2.1451595">
<ele>814</ele>
<time>2014-10-02T18:08:40Z</time>
</trkpt>
<trkpt lat="42.881145" lon="-2.1448638">
<ele>810</ele>
<time>2014-10-02T18:08:42Z</time>
</trkpt>
<trkpt lat="42.881298" lon="-2.1445346">
<ele>809</ele>
<time>2014-10-02T18:08:45Z</time>
</trkpt>
<trkpt lat="42.881413" lon="-2.144253">
<ele>809</ele>
<time>2014-10-02T18:08:47Z</time>
</trkpt>
<trkpt lat="42.881386" lon="-2.1439962">
<ele>802</ele>
<time>2014-10-02T18:08:49Z</time>
</trkpt>
<trkpt lat="42.881443" lon="-2.1438773">
<ele>796</ele>
<time>2014-10-02T18:08:51Z</time>
</trkpt>
<trkpt lat="42.88154" lon="-2.1436615">
<ele>790</ele>
<time>2014-10-02T18:08:53Z</time>
</trkpt>
<trkpt lat="42.88162" lon="-2.1434333">
<ele>785</ele>
<time>2014-10-02T18:08:55Z</time>
</trkpt>
<trkpt lat="42.881733" lon="-2.1432202">
<ele>783</ele>
<time>2014-10-02T18:08:57Z</time>
</trkpt>
<trkpt lat="42.88185" lon="-2.1429753">
<ele>777</ele>
<time>2014-10-02T18:08:59Z</time>
</trkpt>
<trkpt lat="42.881977" lon="-2.142751">
<ele>776</ele>
<time>2014-10-02T18:09:01Z</time>
</trkpt>
<trkpt lat="42.882084" lon="-2.1425433">
<ele>774</ele>
<time>2014-10-02T18:09:03Z</time>
</trkpt>
<trkpt lat="42.88218" lon="-2.1422877">
<ele>771</ele>
<time>2014-10-02T18:09:05Z</time>
</trkpt>
<trkpt lat="42.88227" lon="-2.1420126">
<ele>769</ele>
<time>2014-10-02T18:09:07Z</time>
</trkpt>
<trkpt lat="42.88235" lon="-2.1417658">
<ele>767</ele>
<time>2014-10-02T18:09:09Z</time>
</trkpt>
<trkpt lat="42.88244" lon="-2.141462">
<ele>763</ele>
<time>2014-10-02T18:09:11Z</time>
</trkpt>
<trkpt lat="42.88253" lon="-2.1411555">
<ele>761</ele>
<time>2014-10-02T18:09:13Z</time>
</trkpt>
<trkpt lat="42.882645" lon="-2.140898">
<ele>757</ele>
<time>2014-10-02T18:09:15Z</time>
</trkpt>
<trkpt lat="42.882755" lon="-2.1406317">
<ele>753</ele>
<time>2014-10-02T18:09:17Z</time>
</trkpt>
<trkpt lat="42.882877" lon="-2.1403544">
<ele>748</ele>
<time>2014-10-02T18:09:19Z</time>
</trkpt>
<trkpt lat="42.882996" lon="-2.1401083">
<ele>746</ele>
<time>2014-10-02T18:09:21Z</time>
</trkpt>
<trkpt lat="42.883102" lon="-2.1398501">
<ele>743</ele>
<time>2014-10-02T18:09:23Z</time>
</trkpt>
<trkpt lat="42.883213" lon="-2.139586">
<ele>740</ele>
<time>2014-10-02T18:09:25Z</time>
</trkpt>
<trkpt lat="42.88331" lon="-2.1392853">
<ele>738</ele>
<time>2014-10-02T18:09:27Z</time>
</trkpt>
<trkpt lat="42.883377" lon="-2.138926">
<ele>735</ele>
<time>2014-10-02T18:09:29Z</time>
</trkpt>
<trkpt lat="42.88345" lon="-2.1385937">
<ele>733</ele>
<time>2014-10-02T18:09:31Z</time>
</trkpt>
<trkpt lat="42.88352" lon="-2.1382792">
<ele>730</ele>
<time>2014-10-02T18:09:33Z</time>
</trkpt>
<trkpt lat="42.88358" lon="-2.1379557">
<ele>728</ele>
<time>2014-10-02T18:09:35Z</time>
</trkpt>
<trkpt lat="42.88364" lon="-2.137662">
<ele>727</ele>
<time>2014-10-02T18:09:37Z</time>
</trkpt>
<trkpt lat="42.883713" lon="-2.1373222">
<ele>723</ele>
<time>2014-10-02T18:09:38Z</time>
</trkpt>
<trkpt lat="42.88376" lon="-2.1369958">
<ele>722</ele>
<time>2014-10-02T18:09:41Z</time>
</trkpt>
<trkpt lat="42.883827" lon="-2.1367133">
<ele>722</ele>
<time>2014-10-02T18:09:43Z</time>
</trkpt>
<trkpt lat="42.883934" lon="-2.1363637">
<ele>715</ele>
<time>2014-10-02T18:09:45Z</time>
</trkpt>
<trkpt lat="42.88402" lon="-2.1360922">
<ele>711</ele>
<time>2014-10-02T18:09:47Z</time>
</trkpt>
<trkpt lat="42.88409" lon="-2.1358001">
<ele>710</ele>
<time>2014-10-02T18:09:49Z</time>
</trkpt>
<trkpt lat="42.884144" lon="-2.135482">
<ele>709</ele>
<time>2014-10-02T18:09:51Z</time>
</trkpt>
<trkpt lat="42.884193" lon="-2.1351316">
<ele>708</ele>
<time>2014-10-02T18:09:52Z</time>
</trkpt>
<trkpt lat="42.884266" lon="-2.1348407">
<ele>707</ele>
<time>2014-10-02T18:09:55Z</time>
</trkpt>
<trkpt lat="42.884342" lon="-2.1345127">
<ele>706</ele>
<time>2014-10-02T18:09:56Z</time>
</trkpt>
<trkpt lat="42.884407" lon="-2.134181">
<ele>702</ele>
<time>2014-10-02T18:09:58Z</time>
</trkpt>
<trkpt lat="42.8845" lon="-2.1338863">
<ele>700</ele>
<time>2014-10-02T18:10:01Z</time>
</trkpt>
<trkpt lat="42.884594" lon="-2.1335938">
<ele>699</ele>
<time>2014-10-02T18:10:03Z</time>
</trkpt>
<trkpt lat="42.884686" lon="-2.1333594">
<ele>698</ele>
<time>2014-10-02T18:10:05Z</time>
</trkpt>
<trkpt lat="42.88478" lon="-2.1331167">
<ele>697</ele>
<time>2014-10-02T18:10:06Z</time>
</trkpt>
<trkpt lat="42.88492" lon="-2.1327903">
<ele>694</ele>
<time>2014-10-02T18:10:09Z</time>
</trkpt>
<trkpt lat="42.884968" lon="-2.1324775">
<ele>691</ele>
<time>2014-10-02T18:10:11Z</time>
</trkpt>
<trkpt lat="42.88501" lon="-2.1321557">
<ele>685</ele>
<time>2014-10-02T18:10:13Z</time>
</trkpt>
<trkpt lat="42.88505" lon="-2.13183">
<ele>683</ele>
<time>2014-10-02T18:10:14Z</time>
</trkpt>
<trkpt lat="42.885098" lon="-2.131537">
<ele>679</ele>
<time>2014-10-02T18:10:17Z</time>
</trkpt>
<trkpt lat="42.885147" lon="-2.1312227">
<ele>678</ele>
<time>2014-10-02T18:10:18Z</time>
</trkpt>
<trkpt lat="42.885323" lon="-2.1309988">
<ele>678</ele>
<time>2014-10-02T18:10:21Z</time>
</trkpt>
<trkpt lat="42.88547" lon="-2.1307402">
<ele>671</ele>
<time>2014-10-02T18:10:23Z</time>
</trkpt>
<trkpt lat="42.88559" lon="-2.1304843">
<ele>669</ele>
<time>2014-10-02T18:10:25Z</time>
</trkpt>
<trkpt lat="42.88583" lon="-2.1304495">
<ele>666</ele>
<time>2014-10-02T18:10:27Z</time>
</trkpt>
<trkpt lat="42.886024" lon="-2.1304114">
<ele>662</ele>
<time>2014-10-02T18:10:29Z</time>
</trkpt>
<trkpt lat="42.88616" lon="-2.1304114">
<ele>660</ele>
<time>2014-10-02T18:10:31Z</time>
</trkpt>
<trkpt lat="42.88631" lon="-2.1303616">
<ele>659</ele>
<time>2014-10-02T18:10:32Z</time>
</trkpt>
<trkpt lat="42.886463" lon="-2.1302214">
<ele>653</ele>
<time>2014-10-02T18:10:35Z</time>
</trkpt>
<trkpt lat="42.8866" lon="-2.1301427">
<ele>649</ele>
<time>2014-10-02T18:10:37Z</time>
</trkpt>
<trkpt lat="42.886738" lon="-2.1300867">
<ele>645</ele>
<time>2014-10-02T18:10:39Z</time>
</trkpt>
<trkpt lat="42.886894" lon="-2.129992">
<ele>640</ele>
<time>2014-10-02T18:10:41Z</time>
</trkpt>
<trkpt lat="42.887012" lon="-2.1298547">
<ele>638</ele>
<time>2014-10-02T18:10:43Z</time>
</trkpt>
<trkpt lat="42.88714" lon="-2.1297126">
<ele>637</ele>
<time>2014-10-02T18:10:45Z</time>
</trkpt>
<trkpt lat="42.887283" lon="-2.1296008">
<ele>636</ele>
<time>2014-10-02T18:10:47Z</time>
</trkpt>
<trkpt lat="42.88741" lon="-2.129498">
<ele>635</ele>
<time>2014-10-02T18:10:49Z</time>
</trkpt>
<trkpt lat="42.88758" lon="-2.1294856">
<ele>633</ele>
<time>2014-10-02T18:10:51Z</time>
</trkpt>
<trkpt lat="42.887726" lon="-2.1294892">
<ele>632</ele>
<time>2014-10-02T18:10:53Z</time>
</trkpt>
<trkpt lat="42.887867" lon="-2.1294453">
<ele>629</ele>
<time>2014-10-02T18:10:55Z</time>
</trkpt>
<trkpt lat="42.88802" lon="-2.1293516">
<ele>625</ele>
<time>2014-10-02T18:10:57Z</time>
</trkpt>
<trkpt lat="42.888172" lon="-2.1292534">
<ele>622</ele>
<time>2014-10-02T18:10:59Z</time>
</trkpt>
<trkpt lat="42.888298" lon="-2.1291313">
<ele>620</ele>
<time>2014-10-02T18:11:01Z</time>
</trkpt>
<trkpt lat="42.888443" lon="-2.1290069">
<ele>618</ele>
<time>2014-10-02T18:11:03Z</time>
</trkpt>
<trkpt lat="42.8886" lon="-2.1288326">
<ele>617</ele>
<time>2014-10-02T18:11:04Z</time>
</trkpt>
<trkpt lat="42.888702" lon="-2.1286294">
<ele>617</ele>
<time>2014-10-02T18:11:07Z</time>
</trkpt>
<trkpt lat="42.88876" lon="-2.1283543">
<ele>615</ele>
<time>2014-10-02T18:11:08Z</time>
</trkpt>
<trkpt lat="42.888783" lon="-2.1281369">
<ele>616</ele>
<time>2014-10-02T18:11:11Z</time>
</trkpt>
<trkpt lat="42.88877" lon="-2.127788">
<ele>613</ele>
<time>2014-10-02T18:11:13Z</time>
</trkpt>
<trkpt lat="42.888798" lon="-2.1274812">
<ele>606</ele>
<time>2014-10-02T18:11:15Z</time>
</trkpt>
<trkpt lat="42.88883" lon="-2.1272104">
<ele>606</ele>
<time>2014-10-02T18:11:17Z</time>
</trkpt>
<trkpt lat="42.88887" lon="-2.126964">
<ele>603</ele>
<time>2014-10-02T18:11:19Z</time>
</trkpt>
<trkpt lat="42.888924" lon="-2.1267238">
<ele>600</ele>
<time>2014-10-02T18:11:21Z</time>
</trkpt>
<trkpt lat="42.88896" lon="-2.126441">
<ele>600</ele>
<time>2014-10-02T18:11:23Z</time>
</trkpt>
<trkpt lat="42.888935" lon="-2.1261647">
<ele>600</ele>
<time>2014-10-02T18:11:25Z</time>
</trkpt>
<trkpt lat="42.88893" lon="-2.1258547">
<ele>601</ele>
<time>2014-10-02T18:11:26Z</time>
</trkpt>
<trkpt lat="42.88888" lon="-2.1255896">
<ele>601</ele>
<time>2014-10-02T18:11:29Z</time>
</trkpt>
<trkpt lat="42.888905" lon="-2.1253633">
<ele>598</ele>
<time>2014-10-02T18:11:31Z</time>
</trkpt>
<trkpt lat="42.888977" lon="-2.125094">
<ele>597</ele>
<time>2014-10-02T18:11:33Z</time>
</trkpt>
<trkpt lat="42.889034" lon="-2.1248772">
<ele>597</ele>
<time>2014-10-02T18:11:35Z</time>
</trkpt>
<trkpt lat="42.889084" lon="-2.1246595">
<ele>595</ele>
<time>2014-10-02T18:11:36Z</time>
</trkpt>
<trkpt lat="42.889225" lon="-2.1245713">
<ele>594</ele>
<time>2014-10-02T18:11:39Z</time>
</trkpt>
<trkpt lat="42.88934" lon="-2.1245546">
<ele>590</ele>
<time>2014-10-02T18:11:41Z</time>
</trkpt>
<trkpt lat="42.88944" lon="-2.1245756">
<ele>589</ele>
<time>2014-10-02T18:11:43Z</time>
</trkpt>
<trkpt lat="42.88954" lon="-2.1246603">
<ele>590</ele>
<time>2014-10-02T18:11:45Z</time>
</trkpt>
<trkpt lat="42.889584" lon="-2.1247509">
<ele>587</ele>
<time>2014-10-02T18:11:46Z</time>
</trkpt>
<trkpt lat="42.889595" lon="-2.1248558">
<ele>588</ele>
<time>2014-10-02T18:11:49Z</time>
</trkpt>
<trkpt lat="42.889626" lon="-2.1249185">
<ele>586</ele>
<time>2014-10-02T18:11:51Z</time>
</trkpt>
<trkpt lat="42.88966" lon="-2.1249087">
<ele>582</ele>
<time>2014-10-02T18:11:53Z</time>
</trkpt>
<trkpt lat="42.889675" lon="-2.1249154">
<ele>580</ele>
<time>2014-10-02T18:11:55Z</time>
</trkpt>
<trkpt lat="42.889675" lon="-2.124925">
<ele>580</ele>
<time>2014-10-02T18:11:57Z</time>
</trkpt>
<trkpt lat="42.889683" lon="-2.1249244">
<ele>579</ele>
<time>2014-10-02T18:11:59Z</time>
</trkpt>
<trkpt lat="42.889694" lon="-2.1249027">
<ele>579</ele>
<time>2014-10-02T18:12:01Z</time>
</trkpt>
<trkpt lat="42.8897" lon="-2.124905">
<ele>579</ele>
<time>2014-10-02T18:12:03Z</time>
</trkpt>
<trkpt lat="42.8897" lon="-2.124896">
<ele>579</ele>
<time>2014-10-02T18:12:05Z</time>
</trkpt>
<trkpt lat="42.889706" lon="-2.1248965">
<ele>578</ele>
<time>2014-10-02T18:12:07Z</time>
</trkpt>
<trkpt lat="42.889706" lon="-2.1248963">
<ele>578</ele>
<time>2014-10-02T18:12:09Z</time>
</trkpt>
<trkpt lat="42.889706" lon="-2.1248965">
<ele>578</ele>
<time>2014-10-02T18:12:11Z</time>
</trkpt>
<trkpt lat="42.889706" lon="-2.1248963">
<ele>578</ele>
<time>2014-10-02T18:12:13Z</time>
</trkpt>
<trkpt lat="42.889706" lon="-2.1248968">
<ele>578</ele>
<time>2014-10-02T18:12:15Z</time>
</trkpt>
<trkpt lat="42.889706" lon="-2.1248956">
<ele>578</ele>
<time>2014-10-02T18:12:17Z</time>
</trkpt>
<trkpt lat="42.889706" lon="-2.1248953">
<ele>578</ele>
<time>2014-10-02T18:12:19Z</time>
</trkpt>
<trkpt lat="42.889706" lon="-2.1248953">
<ele>578</ele>
<time>2014-10-02T18:12:21Z</time>
</trkpt>
<trkpt lat="42.889706" lon="-2.1248953">
<ele>578</ele>
<time>2014-10-02T18:12:22Z</time>
</trkpt>
<trkpt lat="42.889706" lon="-2.1248956">
<ele>578</ele>
<time>2014-10-02T18:12:25Z</time>
</trkpt>
<trkpt lat="42.889706" lon="-2.1248956">
<ele>578</ele>
<time>2014-10-02T18:12:27Z</time>
</trkpt>
<trkpt lat="42.889706" lon="-2.1248956">
<ele>578</ele>
<time>2014-10-02T18:12:29Z</time>
</trkpt>
<trkpt lat="42.889706" lon="-2.1248958">
<ele>578</ele>
<time>2014-10-02T18:12:31Z</time>
</trkpt>
<trkpt lat="42.889706" lon="-2.1248958">
<ele>578</ele>
<time>2014-10-02T18:12:33Z</time>
</trkpt>
<trkpt lat="42.889706" lon="-2.1248958">
<ele>578</ele>
<time>2014-10-02T18:12:35Z</time>
</trkpt>
<trkpt lat="42.889706" lon="-2.1248958">
<ele>578</ele>
<time>2014-10-02T18:12:37Z</time>
</trkpt>
<trkpt lat="42.889706" lon="-2.124896">
<ele>578</ele>
<time>2014-10-02T18:12:39Z</time>
</trkpt>
<trkpt lat="42.889706" lon="-2.124896">
<ele>578</ele>
<time>2014-10-02T18:12:41Z</time>
</trkpt>
<trkpt lat="42.889706" lon="-2.124896">
<ele>578</ele>
<time>2014-10-02T18:12:43Z</time>
</trkpt>
<trkpt lat="42.889706" lon="-2.1248958">
<ele>578</ele>
<time>2014-10-02T18:12:45Z</time>
</trkpt>
<trkpt lat="42.88971" lon="-2.1248956">
<ele>578</ele>
<time>2014-10-02T18:12:47Z</time>
</trkpt>
<trkpt lat="42.88971" lon="-2.1248956">
<ele>578</ele>
<time>2014-10-02T18:12:48Z</time>
</trkpt>
<trkpt lat="42.88971" lon="-2.1248958">
<ele>578</ele>
<time>2014-10-02T18:12:51Z</time>
</trkpt>
<trkpt lat="42.88971" lon="-2.124895">
<ele>578</ele>
<time>2014-10-02T18:12:53Z</time>
</trkpt>
<trkpt lat="42.88971" lon="-2.1248949">
<ele>578</ele>
<time>2014-10-02T18:12:55Z</time>
</trkpt>
<trkpt lat="42.88971" lon="-2.124895">
<ele>578</ele>
<time>2014-10-02T18:12:57Z</time>
</trkpt>
<trkpt lat="42.88971" lon="-2.124895">
<ele>578</ele>
<time>2014-10-02T18:12:59Z</time>
</trkpt>
<trkpt lat="42.88971" lon="-2.124895">
<ele>578</ele>
<time>2014-10-02T18:13:01Z</time>
</trkpt>
<trkpt lat="42.88971" lon="-2.124895">
<ele>578</ele>
<time>2014-10-02T18:13:03Z</time>
</trkpt>
<trkpt lat="42.88971" lon="-2.124895">
<ele>578</ele>
<time>2014-10-02T18:13:05Z</time>
</trkpt>
<trkpt lat="42.88971" lon="-2.1248949">
<ele>578</ele>
<time>2014-10-02T18:13:07Z</time>
</trkpt>
<trkpt lat="42.88971" lon="-2.1248949">
<ele>578</ele>
<time>2014-10-02T18:13:09Z</time>
</trkpt>
<trkpt lat="42.88971" lon="-2.1248946">
<ele>578</ele>
<time>2014-10-02T18:13:11Z</time>
</trkpt>
<trkpt lat="42.88971" lon="-2.1248946">
<ele>578</ele>
<time>2014-10-02T18:13:13Z</time>
</trkpt>
<trkpt lat="42.88971" lon="-2.1248944">
<ele>578</ele>
<time>2014-10-02T18:13:15Z</time>
</trkpt>
<trkpt lat="42.88971" lon="-2.1248944">
<ele>578</ele>
<time>2014-10-02T18:13:17Z</time>
</trkpt>
<trkpt lat="42.88971" lon="-2.1248944">
<ele>578</ele>
<time>2014-10-02T18:13:19Z</time>
</trkpt>
<trkpt lat="42.88971" lon="-2.1248944">
<ele>578</ele>
<time>2014-10-02T18:13:20Z</time>
</trkpt>
<trkpt lat="42.88971" lon="-2.1248944">
<ele>578</ele>
<time>2014-10-02T18:13:23Z</time>
</trkpt>
<trkpt lat="42.88971" lon="-2.1248944">
<ele>578</ele>
<time>2014-10-02T18:13:25Z</time>
</trkpt>
<trkpt lat="42.88971" lon="-2.1248946">
<ele>578</ele>
<time>2014-10-02T18:13:27Z</time>
</trkpt>
<trkpt lat="42.88971" lon="-2.1248946">
<ele>578</ele>
<time>2014-10-02T18:13:28Z</time>
</trkpt>
<trkpt lat="42.88971" lon="-2.1248944">
<ele>578</ele>
<time>2014-10-02T18:13:31Z</time>
</trkpt>
<trkpt lat="42.88971" lon="-2.1248944">
<ele>578</ele>
<time>2014-10-02T18:13:33Z</time>
</trkpt>
<trkpt lat="42.88971" lon="-2.1248944">
<ele>578</ele>
<time>2014-10-02T18:13:35Z</time>
</trkpt>
<trkpt lat="42.88971" lon="-2.1248944">
<ele>578</ele>
<time>2014-10-02T18:13:37Z</time>
</trkpt>
<trkpt lat="42.88971" lon="-2.1248941">
<ele>578</ele>
<time>2014-10-02T18:13:39Z</time>
</trkpt>
<trkpt lat="42.88971" lon="-2.1248941">
<ele>578</ele>
<time>2014-10-02T18:13:41Z</time>
</trkpt>
<trkpt lat="42.88971" lon="-2.1248941">
<ele>578</ele>
<time>2014-10-02T18:13:43Z</time>
</trkpt>
<trkpt lat="42.88971" lon="-2.1248941">
<ele>578</ele>
<time>2014-10-02T18:13:45Z</time>
</trkpt>
<trkpt lat="42.88971" lon="-2.1248941">
<ele>578</ele>
<time>2014-10-02T18:13:46Z</time>
</trkpt>
<trkpt lat="42.88971" lon="-2.1248941">
<ele>578</ele>
<time>2014-10-02T18:13:49Z</time>
</trkpt>
<trkpt lat="42.88971" lon="-2.124894">
<ele>578</ele>
<time>2014-10-02T18:13:51Z</time>
</trkpt>
<trkpt lat="42.88971" lon="-2.124894">
<ele>578</ele>
<time>2014-10-02T18:13:53Z</time>
</trkpt>
<trkpt lat="42.88971" lon="-2.124894">
<ele>578</ele>
<time>2014-10-02T18:13:55Z</time>
</trkpt>
<trkpt lat="42.88971" lon="-2.124894">
<ele>578</ele>
<time>2014-10-02T18:13:57Z</time>
</trkpt>
<trkpt lat="42.88971" lon="-2.124894">
<ele>578</ele>
<time>2014-10-02T18:13:59Z</time>
</trkpt>
		</trkseg>
	</trk>
</gpx>
